Wetterdaten: Mittwoch, 07.12.2022
Datum Zeit Temp. Aussen Temp. o. S. Temp +5cm Feuchte Auss Luftdruck Regen Sonnenschein Regendauer Solar Windben Empfang
07.12.2022 00:00 4,6 C 3,9 C 1,7 C 97 % 1018,2 hPa 0,0 l/m 0 min 0 min 0 W/m 6,4 km/h (2 Bft) 97,14 %
07.12.2022 00:02 4,6 C 3,9 C 1,7 C 97 % 1018,2 hPa 0,0 l/m 0 min 0 min 0 W/m 6,4 km/h (2 Bft) 95,00 %
07.12.2022 00:04 4,6 C 3,9 C 1,7 C 97 % 1018,2 hPa 0,0 l/m 0 min 2 min 0 W/m 3,2 km/h (1 Bft) 97,87 %
07.12.2022 00:08 4,6 C 3,9 C 1,7 C 97 % 1018,2 hPa 0,2 l/m 0 min 4 min 0 W/m 6,4 km/h (2 Bft) 85,11 %
07.12.2022 00:10 4,6 C 3,9 C 1,7 C 97 % 1018,2 hPa 0,0 l/m 0 min 2 min 0 W/m 6,4 km/h (2 Bft) 69,57 %
07.12.2022 00:12 4,6 C 3,9 C 1,7 C 97 % 1018,2 hPa 0,0 l/m 0 min 2 min 0 W/m 3,2 km/h (1 Bft) 95,74 %
07.12.2022 00:14 4,6 C 3,9 C 1,7 C 97 % 1018,2 hPa 0,0 l/m 0 min 0 min 0 W/m 3,2 km/h (1 Bft) 91,49 %
07.12.2022 00:16 4,6 C 3,9 C 1,7 C 97 % 1018,1 hPa 0,0 l/m 0 min 0 min 0 W/m 6,4 km/h (2 Bft) 97,87 %
07.12.2022 00:18 4,6 C 3,9 C 1,7 C 97 % 1018,1 hPa 0,0 l/m 0 min 0 min 0 W/m 0,0 km/h (0 Bft) 91,49 %
07.12.2022 00:20 4,7 C 3,9 C 1,7 C 97 % 1018,0 hPa 0,0 l/m 0 min 0 min 0 W/m 0,0 km/h (0 Bft) 89,36 %
07.12.2022 00:22 4,7 C 3,9 C 1,7 C 97 % 1018,0 hPa 0,0 l/m 0 min 0 min 0 W/m 0,0 km/h (0 Bft) 93,33 %
07.12.2022 00:24 4,7 C 3,9 C 1,7 C 97 % 1018,0 hPa 0,0 l/m 0 min 0 min 0 W/m 12,9 km/h (3 Bft) 78,72 %
07.12.2022 00:26 4,7 C 3,9 C 1,7 C 97 % 1018,1 hPa 0,0 l/m 0 min 0 min 0 W/m 12,9 km/h (3 Bft) 97,87 %
07.12.2022 00:28 4,7 C 3,9 C 1,7 C 97 % 1018,0 hPa 0,0 l/m 0 min 0 min 0 W/m 3,2 km/h (1 Bft) 95,74 %
07.12.2022 00:30 4,7 C 3,9 C 1,7 C 97 % 1018,0 hPa 0,0 l/m 0 min 0 min 0 W/m 3,2 km/h (1 Bft) 95,74 %
07.12.2022 00:32 4,7 C 3,9 C 1,7 C 97 % 1018,0 hPa 0,0 l/m 0 min 0 min 0 W/m 3,2 km/h (1 Bft) 93,62 %
07.12.2022 00:34 4,7 C 3,9 C 1,7 C 97 % 1018,0 hPa 0,0 l/m 0 min 0 min 0 W/m 3,2 km/h (1 Bft) 95,65 %
07.12.2022 00:36 4,7 C 3,9 C 1,7 C 97 % 1017,9 hPa 0,0 l/m 0 min 0 min 0 W/m 3,2 km/h (1 Bft) 95,74 %
07.12.2022 00:38 4,7 C 3,9 C 1,7 C 97 % 1018,0 hPa 0,0 l/m 0 min 0 min 0 W/m 3,2 km/h (1 Bft) 93,62 %
07.12.2022 00:40 4,7 C 3,9 C 1,7 C 97 % 1017,9 hPa 0,0 l/m 0 min 0 min 0 W/m 3,2 km/h (1 Bft) 97,87 %
07.12.2022 00:42 4,6 C 3,9 C 1,7 C 97 % 1017,9 hPa 0,0 l/m 0 min 0 min 0 W/m 6,4 km/h (2 Bft) 97,87 %
07.12.2022 00:44 4,6 C 3,9 C 1,7 C 97 % 1017,9 hPa 0,0 l/m 0 min 0 min 0 W/m 3,2 km/h (1 Bft) 95,65 %
07.12.2022 00:46 4,6 C 3,9 C 1,7 C 97 % 1017,9 hPa 0,0 l/m 0 min 0 min 0 W/m 6,4 km/h (2 Bft) 93,62 %
07.12.2022 00:48 4,6 C 3,9 C 1,7 C 97 % 1017,9 hPa 0,0 l/m 0 min 0 min 0 W/m 6,4 km/h (2 Bft) 97,87 %
07.12.2022 00:50 4,6 C 3,9 C 1,7 C 97 % 1017,8 hPa 0,0 l/m 0 min 0 min 0 W/m 16,1 km/h (3 Bft) 91,49 %
07.12.2022 00:52 4,6 C 3,9 C 1,7 C 97 % 1017,8 hPa 0,0 l/m 0 min 0 min 0 W/m 12,9 km/h (3 Bft) 100,00 %
07.12.2022 00:54 4,6 C 3,9 C 1,7 C 97 % 1017,7 hPa 0,0 l/m 0 min 0 min 0 W/m 12,9 km/h (3 Bft) 100,00 %
07.12.2022 00:56 4,6 C 3,9 C 1,7 C 97 % 1017,8 hPa 0,0 l/m 0 min 0 min 0 W/m 3,2 km/h (1 Bft) 97,83 %
07.12.2022 00:58 4,6 C 3,9 C 1,7 C 97 % 1017,9 hPa 0,0 l/m 0 min 0 min 0 W/m 3,2 km/h (1 Bft) 100,00 %
07.12.2022 01:00 4,6 C 3,9 C 1,7 C 97 % 1017,8 hPa 0,0 l/m 0 min 0 min 0 W/m 3,2 km/h (1 Bft) 100,00 %
07.12.2022 01:02 4,6 C 3,9 C 1,7 C 97 % 1017,8 hPa 0,0 l/m 0 min 0 min 0 W/m 6,4 km/h (2 Bft) 93,62 %
07.12.2022 01:04 4,5 C 3,9 C 1,7 C 97 % 1017,9 hPa 0,0 l/m 0 min 0 min 0 W/m 6,4 km/h (2 Bft) 100,00 %
07.12.2022 01:06 4,5 C 3,9 C 1,7 C 97 % 1017,9 hPa 0,0 l/m 0 min 0 min 0 W/m 6,4 km/h (2 Bft) 100,00 %
07.12.2022 01:08 4,5 C 3,9 C 1,7 C 97 % 1017,9 hPa 0,0 l/m 0 min 0 min 0 W/m 6,4 km/h (2 Bft) 97,83 %
07.12.2022 01:10 4,5 C 3,9 C 1,7 C 97 % 1017,9 hPa 0,0 l/m 0 min 0 min 0 W/m 6,4 km/h (2 Bft) 100,00 %
07.12.2022 01:12 4,5 C 3,9 C 1,7 C 97 % 1017,8 hPa 0,0 l/m 0 min 0 min 0 W/m 6,4 km/h (2 Bft) 95,74 %
07.12.2022 01:14 4,5 C 3,9 C 1,7 C 97 % 1017,8 hPa 0,0 l/m 0 min 0 min 0 W/m 6,4 km/h (2 Bft) 97,87 %
07.12.2022 01:16 4,5 C 3,9 C 1,7 C 97 % 1017,8 hPa 0,0 l/m 0 min 0 min 0 W/m 12,9 km/h (3 Bft) 97,87 %
07.12.2022 01:18 4,5 C 3,9 C 1,7 C 97 % 1017,9 hPa 0,0 l/m 0 min 0 min 0 W/m 3,2 km/h (1 Bft) 97,87 %
07.12.2022 01:20 4,5 C 3,9 C 1,7 C 97 % 1017,8 hPa 0,0 l/m 0 min 0 min 0 W/m 3,2 km/h (1 Bft) 95,65 %
07.12.2022 01:22 4,5 C 3,9 C 1,7 C 97 % 1017,9 hPa 0,0 l/m 0 min 0 min 0 W/m 3,2 km/h (1 Bft) 100,00 %
07.12.2022 01:24 4,5 C 3,9 C 1,7 C 97 % 1017,9 hPa 0,0 l/m 0 min 0 min 0 W/m 12,9 km/h (3 Bft) 97,87 %
07.12.2022 01:26 4,5 C 3,9 C 1,7 C 97 % 1017,9 hPa 0,0 l/m 0 min 0 min 0 W/m 6,4 km/h (2 Bft) 97,87 %
07.12.2022 01:28 4,5 C 3,9 C 1,7 C 97 % 1017,9 hPa 0,0 l/m 0 min 0 min 0 W/m 9,7 km/h (2 Bft) 100,00 %
07.12.2022 01:30 4,5 C 3,9 C 1,7 C 97 % 1017,8 hPa 0,0 l/m 0 min 0 min 0 W/m 6,4 km/h (2 Bft) 97,87 %
07.12.2022 01:32 4,5 C 3,9 C 1,7 C 97 % 1017,8 hPa 0,0 l/m 0 min 0 min 0 W/m 6,4 km/h (2 Bft) 100,00 %
07.12.2022 01:34 4,5 C 3,9 C 1,7 C 97 % 1017,8 hPa 0,0 l/m 0 min 0 min 0 W/m 6,4 km/h (2 Bft) 97,87 %
07.12.2022 01:36 4,5 C 3,9 C 1,7 C 97 % 1017,8 hPa 0,0 l/m 0 min 0 min 0 W/m 6,4 km/h (2 Bft) 97,83 %
07.12.2022 01:38 4,5 C 3,9 C 1,7 C 97 % 1017,8 hPa 0,0 l/m 0 min 0 min 0 W/m 6,4 km/h (2 Bft) 97,87 %
07.12.2022 01:40 4,5 C 3,9 C 1,7 C 97 % 1017,7 hPa 0,0 l/m 0 min 0 min 0 W/m 6,4 km/h (2 Bft) 85,11 %
07.12.2022 01:42 4,5 C 3,9 C 1,7 C 97 % 1017,8 hPa 0,0 l/m 0 min 0 min 0 W/m 9,7 km/h (2 Bft) 72,34 %
07.12.2022 01:44 4,5 C 3,9 C 1,7 C 97 % 1017,7 hPa 0,0 l/m 0 min 0 min 0 W/m 6,4 km/h (2 Bft) 82,98 %
07.12.2022 01:46 4,5 C 3,9 C 1,7 C 97 % 1017,8 hPa 0,0 l/m 0 min 0 min 0 W/m 3,2 km/h (1 Bft) 78,72 %
07.12.2022 01:48 4,5 C 3,9 C 1,7 C 97 % 1017,8 hPa 0,0 l/m 0 min 0 min 0 W/m 6,4 km/h (2 Bft) 67,39 %
07.12.2022 01:50 4,5 C 3,9 C 1,7 C 97 % 1017,8 hPa 0,0 l/m 0 min 0 min 0 W/m 12,9 km/h (3 Bft) 82,98 %
07.12.2022 01:52 4,5 C 3,9 C 1,7 C 97 % 1017,7 hPa 0,0 l/m 0 min 0 min 0 W/m 6,4 km/h (2 Bft) 91,49 %
07.12.2022 01:54 4,4 C 3,9 C 1,7 C 97 % 1017,7 hPa 0,0 l/m 0 min 0 min 0 W/m 6,4 km/h (2 Bft) 97,87 %
07.12.2022 01:56 4,4 C 3,9 C 1,7 C 97 % 1017,7 hPa 0,0 l/m 0 min 0 min 0 W/m 6,4 km/h (2 Bft) 93,62 %
07.12.2022 01:58 4,4 C 3,9 C 1,7 C 97 % 1017,6 hPa 0,0 l/m 0 min 0 min 0 W/m 6,4 km/h (2 Bft) 95,74 %
07.12.2022 02:00 4,4 C 3,9 C 1,7 C 97 % 1017,7 hPa 0,0 l/m 0 min 0 min 0 W/m 6,4 km/h (2 Bft) 95,65 %
07.12.2022 02:02 4,4 C 3,9 C 1,7 C 97 % 1017,6 hPa 0,0 l/m 0 min 0 min 0 W/m 12,9 km/h (3 Bft) 93,62 %
07.12.2022 02:04 4,4 C 3,9 C 1,7 C 97 % 1017,6 hPa 0,0 l/m 0 min 0 min 0 W/m 6,4 km/h (2 Bft) 97,87 %
07.12.2022 02:06 4,3 C 3,9 C 1,7 C 97 % 1017,6 hPa 0,0 l/m 0 min 0 min 0 W/m 6,4 km/h (2 Bft) 89,83 %
07.12.2022 02:08 4,3 C 3,9 C 1,7 C 97 % 1017,7 hPa 0,0 l/m 0 min 0 min 0 W/m 6,4 km/h (2 Bft) 85,71 %
07.12.2022 02:10 4,3 C 3,9 C 1,7 C 97 % 1017,7 hPa 0,0 l/m 0 min 0 min 0 W/m 6,4 km/h (2 Bft) 95,65 %
07.12.2022 02:12 4,3 C 3,9 C 1,7 C 97 % 1017,7 hPa 0,0 l/m 0 min 0 min 0 W/m 6,4 km/h (2 Bft) 95,74 %
07.12.2022 02:14 4,3 C 3,9 C 1,7 C 97 % 1017,6 hPa 0,0 l/m 0 min 0 min 0 W/m 6,4 km/h (2 Bft) 93,62 %
07.12.2022 02:16 4,3 C 3,9 C 1,7 C 97 % 1017,6 hPa 0,0 l/m 0 min 0 min 0 W/m 6,4 km/h (2 Bft) 95,74 %
07.12.2022 02:18 4,3 C 3,9 C 1,7 C 97 % 1017,6 hPa 0,0 l/m 0 min 0 min 0 W/m 6,4 km/h (2 Bft) 91,49 %
07.12.2022 02:20 4,3 C 3,9 C 1,7 C 97 % 1017,7 hPa 0,0 l/m 0 min 0 min 0 W/m 6,4 km/h (2 Bft) 93,62 %
07.12.2022 02:22 4,3 C 3,9 C 1,7 C 97 % 1017,7 hPa 0,0 l/m 0 min 0 min 0 W/m 6,4 km/h (2 Bft) 91,30 %
07.12.2022 02:24 4,3 C 3,9 C 1,7 C 97 % 1017,6 hPa 0,0 l/m 0 min 0 min 0 W/m 6,4 km/h (2 Bft) 89,36 %
07.12.2022 02:26 4,3 C 3,9 C 1,7 C 97 % 1017,7 hPa 0,0 l/m 0 min 0 min 0 W/m 6,4 km/h (2 Bft) 91,49 %
07.12.2022 02:28 4,3 C 3,9 C 1,7 C 97 % 1017,6 hPa 0,0 l/m 0 min 0 min 0 W/m 6,4 km/h (2 Bft) 93,62 %
07.12.2022 02:30 4,3 C 3,9 C 1,7 C 97 % 1017,6 hPa 0,0 l/m 0 min 0 min 0 W/m 9,7 km/h (2 Bft) 93,62 %
07.12.2022 02:32 4,3 C 3,9 C 1,7 C 98 % 1017,5 hPa 0,0 l/m 0 min 0 min 0 W/m 6,4 km/h (2 Bft) 91,49 %
07.12.2022 02:34 4,3 C 3,9 C 1,7 C 98 % 1017,5 hPa 0,0 l/m 0 min 0 min 0 W/m 6,4 km/h (2 Bft) 91,30 %
07.12.2022 02:36 4,3 C 3,9 C 1,7 C 98 % 1017,5 hPa 0,0 l/m 0 min 0 min 0 W/m 6,4 km/h (2 Bft) 89,36 %
07.12.2022 02:38 4,3 C 3,9 C 1,7 C 98 % 1017,6 hPa 0,0 l/m 0 min 0 min 0 W/m 6,4 km/h (2 Bft) 93,62 %
07.12.2022 02:40 4,2 C 3,9 C 1,7 C 98 % 1017,6 hPa 0,0 l/m 0 min 0 min 0 W/m 6,4 km/h (2 Bft) 95,74 %
07.12.2022 02:42 4,2 C 3,9 C 1,7 C 98 % 1017,6 hPa 0,0 l/m 0 min 0 min 0 W/m 6,4 km/h (2 Bft) 95,74 %
07.12.2022 02:44 4,2 C 3,3 C 1,7 C 98 % 1017,6 hPa 0,0 l/m 0 min 0 min 0 W/m 6,4 km/h (2 Bft) 95,74 %
07.12.2022 02:46 4,2 C 3,3 C 1,7 C 98 % 1017,6 hPa 0,0 l/m 0 min 0 min 0 W/m 6,4 km/h (2 Bft) 97,83 %
07.12.2022 02:48 4,2 C 3,3 C 1,7 C 98 % 1017,7 hPa 0,0 l/m 0 min 0 min 0 W/m 6,4 km/h (2 Bft) 95,74 %
07.12.2022 02:50 4,2 C 3,3 C 1,7 C 98 % 1017,6 hPa 0,0 l/m 0 min 0 min 0 W/m 6,4 km/h (2 Bft) 95,74 %
07.12.2022 02:52 4,2 C 3,3 C 1,7 C 98 % 1017,6 hPa 0,0 l/m 0 min 0 min 0 W/m 12,9 km/h (3 Bft) 97,87 %
07.12.2022 02:54 4,2 C 3,3 C 1,7 C 98 % 1017,7 hPa 0,0 l/m 0 min 0 min 0 W/m 3,2 km/h (1 Bft) 97,87 %
07.12.2022 02:56 4,2 C 3,3 C 1,7 C 98 % 1017,6 hPa 0,0 l/m 0 min 0 min 0 W/m 6,4 km/h (2 Bft) 95,74 %
07.12.2022 02:58 4,2 C 3,3 C 1,7 C 98 % 1017,6 hPa 0,0 l/m 0 min 0 min 0 W/m 3,2 km/h (1 Bft) 97,83 %
07.12.2022 03:00 4,2 C 3,3 C 1,7 C 98 % 1017,6 hPa 0,0 l/m 0 min 0 min 0 W/m 6,4 km/h (2 Bft) 97,87 %
07.12.2022 03:02 4,2 C 3,3 C 1,7 C 98 % 1017,5 hPa 0,0 l/m 0 min 0 min 0 W/m 6,4 km/h (2 Bft) 95,74 %
07.12.2022 03:04 4,2 C 3,3 C 1,7 C 98 % 1017,6 hPa 0,0 l/m 0 min 0 min 0 W/m 9,7 km/h (2 Bft) 97,87 %
07.12.2022 03:06 4,1 C 3,3 C 1,7 C 98 % 1017,5 hPa 0,0 l/m 0 min 0 min 0 W/m 9,7 km/h (2 Bft) 96,55 %
07.12.2022 03:08 4,1 C 3,3 C 1,7 C 98 % 1017,5 hPa 0,0 l/m 0 min 0 min 0 W/m 6,4 km/h (2 Bft) 100,00 %
07.12.2022 03:10 4,1 C 3,3 C 1,7 C 98 % 1017,5 hPa 0,0 l/m 0 min 0 min 0 W/m 6,4 km/h (2 Bft) 97,83 %
07.12.2022 03:12 4,1 C 3,3 C 1,7 C 98 % 1017,5 hPa 0,0 l/m 0 min 0 min 0 W/m 6,4 km/h (2 Bft) 100,00 %
07.12.2022 03:14 4,1 C 3,3 C 1,7 C 98 % 1017,5 hPa 0,0 l/m 0 min 0 min 0 W/m 6,4 km/h (2 Bft) 97,87 %
07.12.2022 03:16 4,1 C 3,3 C 1,7 C 98 % 1017,5 hPa 0,0 l/m 0 min 0 min 0 W/m 6,4 km/h (2 Bft) 100,00 %
07.12.2022 03:18 4,1 C 3,3 C 1,7 C 98 % 1017,4 hPa 0,0 l/m 0 min 0 min 0 W/m 6,4 km/h (2 Bft) 100,00 %
07.12.2022 03:20 4,1 C 3,3 C 1,7 C 98 % 1017,4 hPa 0,0 l/m 0 min 0 min 0 W/m 6,4 km/h (2 Bft) 97,87 %
07.12.2022 03:22 4,1 C 3,3 C 1,7 C 98 % 1017,4 hPa 0,0 l/m 0 min 0 min 0 W/m 6,4 km/h (2 Bft) 100,00 %
07.12.2022 03:24 4,1 C 3,3 C 1,7 C 98 % 1017,4 hPa 0,0 l/m 0 min 0 min 0 W/m 3,2 km/h (1 Bft) 100,00 %
07.12.2022 03:26 4,0 C 3,3 C 1,7 C 98 % 1017,4 hPa 0,0 l/m 0 min 0 min 0 W/m 6,4 km/h (2 Bft) 100,00 %
07.12.2022 03:28 4,0 C 3,3 C 1,7 C 98 % 1017,4 hPa 0,0 l/m 0 min 0 min 0 W/m 6,4 km/h (2 Bft) 97,87 %
07.12.2022 03:30 4,0 C 3,3 C 1,7 C 98 % 1017,4 hPa 0,0 l/m 0 min 0 min 0 W/m 9,7 km/h (2 Bft) 100,00 %
07.12.2022 03:32 3,9 C 3,3 C 1,7 C 98 % 1017,5 hPa 0,0 l/m 0 min 0 min 0 W/m 6,4 km/h (2 Bft) 97,87 %
07.12.2022 03:34 3,9 C 3,3 C 1,7 C 98 % 1017,4 hPa 0,0 l/m 0 min 0 min 0 W/m 6,4 km/h (2 Bft) 100,00 %
07.12.2022 03:36 3,9 C 3,3 C 1,7 C 98 % 1017,5 hPa 0,0 l/m 0 min 0 min 0 W/m 6,4 km/h (2 Bft) 100,00 %
07.12.2022 03:38 3,9 C 3,3 C 1,7 C 98 % 1017,5 hPa 0,0 l/m 0 min 0 min 0 W/m 12,9 km/h (3 Bft) 100,00 %
07.12.2022 03:40 3,9 C 3,3 C 1,7 C 98 % 1017,5 hPa 0,0 l/m 0 min 0 min 0 W/m 3,2 km/h (1 Bft) 100,00 %
07.12.2022 03:42 3,9 C 3,3 C 1,7 C 98 % 1017,5 hPa 0,0 l/m 0 min 0 min 0 W/m 16,1 km/h (3 Bft) 97,87 %
07.12.2022 03:44 3,9 C 3,3 C 1,7 C 98 % 1017,5 hPa 0,0 l/m 0 min 0 min 0 W/m 12,9 km/h (3 Bft) 97,87 %
07.12.2022 03:46 3,9 C 3,3 C 1,7 C 98 % 1017,5 hPa 0,0 l/m 0 min 0 min 0 W/m 6,4 km/h (2 Bft) 95,65 %
07.12.2022 03:48 3,9 C 3,3 C 1,7 C 98 % 1017,5 hPa 0,0 l/m 0 min 0 min 0 W/m 9,7 km/h (2 Bft) 100,00 %
07.12.2022 03:50 3,9 C 3,3 C 1,7 C 98 % 1017,5 hPa 0,0 l/m 0 min 0 min 0 W/m 12,9 km/h (3 Bft) 97,87 %
07.12.2022 03:52 3,9 C 3,3 C 1,7 C 98 % 1017,5 hPa 0,0 l/m 0 min 0 min 0 W/m 12,9 km/h (3 Bft) 100,00 %
07.12.2022 03:54 3,9 C 3,3 C 1,7 C 98 % 1017,5 hPa 0,0 l/m 0 min 0 min 0 W/m 6,4 km/h (2 Bft) 100,00 %
07.12.2022 03:56 3,9 C 3,3 C 1,7 C 98 % 1017,5 hPa 0,0 l/m 0 min 0 min 0 W/m 6,4 km/h (2 Bft) 97,87 %
07.12.2022 03:58 3,9 C 3,3 C 1,7 C 98 % 1017,5 hPa 0,0 l/m 0 min 0 min 0 W/m 12,9 km/h (3 Bft) 97,83 %
07.12.2022 04:00 3,9 C 3,3 C 1,7 C 98 % 1017,5 hPa 0,0 l/m 0 min 0 min 0 W/m 9,7 km/h (2 Bft) 98,00 %
07.12.2022 04:02 3,9 C 3,3 C 1,7 C 98 % 1017,4 hPa 0,0 l/m 0 min 0 min 0 W/m 6,4 km/h (2 Bft) 100,00 %
07.12.2022 04:04 3,9 C 3,3 C 1,7 C 98 % 1017,5 hPa 0,0 l/m 0 min 0 min 0 W/m 9,7 km/h (2 Bft) 100,00 %
07.12.2022 04:06 3,9 C 3,3 C 1,7 C 98 % 1017,4 hPa 0,0 l/m 0 min 0 min 0 W/m 6,4 km/h (2 Bft) 91,43 %
07.12.2022 04:08 3,8 C 3,3 C 1,7 C 98 % 1017,5 hPa 0,0 l/m 0 min 0 min 0 W/m 6,4 km/h (2 Bft) 96,61 %
07.12.2022 04:10 3,8 C 3,3 C 1,7 C 98 % 1017,4 hPa 0,0 l/m 0 min 0 min 0 W/m 6,4 km/h (2 Bft) 95,74 %
07.12.2022 04:12 3,8 C 3,3 C 1,7 C 98 % 1017,4 hPa 0,0 l/m 0 min 0 min 0 W/m 6,4 km/h (2 Bft) 97,87 %
07.12.2022 04:14 3,8 C 2,8 C 1,7 C 98 % 1017,5 hPa 0,0 l/m 0 min 0 min 0 W/m 6,4 km/h (2 Bft) 97,87 %
07.12.2022 04:16 3,7 C 2,8 C 1,1 C 98 % 1017,5 hPa 0,0 l/m 0 min 0 min 0 W/m 3,2 km/h (1 Bft) 95,74 %
07.12.2022 04:18 3,7 C 2,8 C 1,1 C 98 % 1017,5 hPa 0,0 l/m 0 min 0 min 0 W/m 6,4 km/h (2 Bft) 97,87 %
07.12.2022 04:20 3,7 C 2,8 C 1,1 C 98 % 1017,5 hPa 0,0 l/m 0 min 0 min 0 W/m 3,2 km/h (1 Bft) 97,83 %
07.12.2022 04:22 3,7 C 2,8 C 1,1 C 98 % 1017,5 hPa 0,0 l/m 0 min 0 min 0 W/m 3,2 km/h (1 Bft) 95,74 %
07.12.2022 04:24 3,6 C 2,8 C 1,1 C 98 % 1017,5 hPa 0,0 l/m 0 min 0 min 0 W/m 6,4 km/h (2 Bft) 95,74 %
07.12.2022 04:26 3,6 C 2,8 C 1,1 C 98 % 1017,4 hPa 0,0 l/m 0 min 0 min 0 W/m 6,4 km/h (2 Bft) 95,74 %
07.12.2022 04:28 3,6 C 2,8 C 1,1 C 98 % 1017,4 hPa 0,0 l/m 0 min 0 min 0 W/m 6,4 km/h (2 Bft) 95,74 %
07.12.2022 04:30 3,6 C 2,8 C 1,1 C 98 % 1017,4 hPa 0,0 l/m 0 min 0 min 0 W/m 3,2 km/h (1 Bft) 100,00 %
07.12.2022 04:32 3,6 C 2,8 C 1,1 C 98 % 1017,4 hPa 0,0 l/m 0 min 0 min 0 W/m 6,4 km/h (2 Bft) 97,83 %
07.12.2022 04:34 3,6 C 2,8 C 1,1 C 98 % 1017,4 hPa 0,0 l/m 0 min 0 min 0 W/m 6,4 km/h (2 Bft) 95,74 %
07.12.2022 04:36 3,6 C 2,8 C 1,1 C 98 % 1017,5 hPa 0,0 l/m 0 min 0 min 0 W/m 9,7 km/h (2 Bft) 95,74 %
07.12.2022 04:38 3,6 C 2,8 C 1,1 C 98 % 1017,4 hPa 0,0 l/m 0 min 0 min 0 W/m 3,2 km/h (1 Bft) 97,87 %
07.12.2022 04:40 3,6 C 2,8 C 1,1 C 98 % 1017,4 hPa 0,0 l/m 0 min 0 min 0 W/m 6,4 km/h (2 Bft) 97,87 %
07.12.2022 04:42 3,6 C 2,8 C 1,1 C 98 % 1017,4 hPa 0,0 l/m 0 min 0 min 0 W/m 3,2 km/h (1 Bft) 97,87 %
07.12.2022 04:44 3,6 C 2,8 C 1,1 C 98 % 1017,4 hPa 0,0 l/m 0 min 0 min 0 W/m 3,2 km/h (1 Bft) 97,83 %
07.12.2022 04:46 3,6 C 2,8 C 1,1 C 98 % 1017,4 hPa 0,0 l/m 0 min 0 min 0 W/m 3,2 km/h (1 Bft) 97,87 %
07.12.2022 04:48 3,6 C 2,8 C 1,1 C 98 % 1017,4 hPa 0,0 l/m 0 min 0 min 0 W/m 3,2 km/h (1 Bft) 97,87 %
07.12.2022 04:50 3,6 C 2,8 C 1,1 C 98 % 1017,4 hPa 0,0 l/m 0 min 0 min 0 W/m 3,2 km/h (1 Bft) 97,87 %
07.12.2022 04:52 3,6 C 2,8 C 1,1 C 98 % 1017,4 hPa 0,0 l/m 0 min 0 min 0 W/m 3,2 km/h (1 Bft) 97,87 %
07.12.2022 04:54 3,5 C 2,8 C 1,1 C 98 % 1017,4 hPa 0,0 l/m 0 min 0 min 0 W/m 3,2 km/h (1 Bft) 95,74 %
07.12.2022 04:56 3,5 C 2,8 C 1,1 C 98 % 1017,4 hPa 0,0 l/m 0 min 0 min 0 W/m 6,4 km/h (2 Bft) 97,83 %
07.12.2022 04:58 3,4 C 2,8 C 1,1 C 98 % 1017,4 hPa 0,0 l/m 0 min 0 min 0 W/m 6,4 km/h (2 Bft) 97,87 %
07.12.2022 05:00 3,4 C 2,8 C 1,1 C 98 % 1017,4 hPa 0,0 l/m 0 min 0 min 0 W/m 6,4 km/h (2 Bft) 97,87 %
07.12.2022 05:02 3,4 C 2,8 C 1,1 C 98 % 1017,4 hPa 0,0 l/m 0 min 0 min 0 W/m 3,2 km/h (1 Bft) 97,87 %
07.12.2022 05:04 3,4 C 2,8 C 1,1 C 98 % 1017,4 hPa 0,0 l/m 0 min 0 min 0 W/m 3,2 km/h (1 Bft) 100,00 %
07.12.2022 05:06 3,3 C 2,8 C 1,1 C 98 % 1017,4 hPa 0,0 l/m 0 min 0 min 0 W/m 3,2 km/h (1 Bft) 100,00 %
07.12.2022 05:08 3,3 C 2,2 C 1,1 C 98 % 1017,4 hPa 0,0 l/m 0 min 0 min 0 W/m 3,2 km/h (1 Bft) 97,83 %
07.12.2022 05:10 3,3 C 2,8 C 1,1 C 98 % 1017,5 hPa 0,0 l/m 0 min 0 min 0 W/m 6,4 km/h (2 Bft) 100,00 %
07.12.2022 05:12 3,3 C 2,2 C 1,1 C 98 % 1017,4 hPa 0,0 l/m 0 min 0 min 0 W/m 3,2 km/h (1 Bft) 100,00 %
07.12.2022 05:14 3,3 C 2,2 C 1,1 C 98 % 1017,4 hPa 0,0 l/m 0 min 0 min 0 W/m 0,0 km/h (0 Bft) 97,87 %
07.12.2022 05:16 3,2 C 2,2 C 1,1 C 98 % 1017,4 hPa 0,0 l/m 0 min 0 min 0 W/m 3,2 km/h (1 Bft) 100,00 %
07.12.2022 05:18 3,2 C 2,2 C 1,1 C 98 % 1017,4 hPa 0,0 l/m 0 min 0 min 0 W/m 3,2 km/h (1 Bft) 100,00 %
07.12.2022 05:20 3,2 C 2,2 C 1,1 C 98 % 1017,4 hPa 0,0 l/m 0 min 0 min 0 W/m 3,2 km/h (1 Bft) 97,87 %
07.12.2022 05:22 3,2 C 2,8 C 1,1 C 98 % 1017,4 hPa 0,0 l/m 0 min 0 min 0 W/m 0,0 km/h (0 Bft) 100,00 %
07.12.2022 05:24 3,2 C 2,8 C 1,1 C 98 % 1017,4 hPa 0,0 l/m 0 min 0 min 0 W/m 0,0 km/h (0 Bft) 100,00 %
07.12.2022 05:26 3,2 C 2,8 C 1,1 C 98 % 1017,3 hPa 0,0 l/m 0 min 0 min 0 W/m 3,2 km/h (1 Bft) 97,87 %
07.12.2022 05:28 3,2 C 2,8 C 1,1 C 98 % 1017,4 hPa 0,0 l/m 0 min 0 min 0 W/m 9,7 km/h (2 Bft) 100,00 %
07.12.2022 05:30 3,2 C 2,8 C 1,1 C 98 % 1017,4 hPa 0,0 l/m 0 min 0 min 0 W/m 3,2 km/h (1 Bft) 97,83 %
07.12.2022 05:32 3,3 C 2,8 C 1,1 C 98 % 1017,4 hPa 0,0 l/m 0 min 0 min 0 W/m 6,4 km/h (2 Bft) 89,36 %
07.12.2022 05:34 3,3 C 2,8 C 1,1 C 98 % 1017,4 hPa 0,0 l/m 0 min 0 min 0 W/m 3,2 km/h (1 Bft) 97,87 %
07.12.2022 05:36 3,3 C 2,8 C 1,1 C 98 % 1017,4 hPa 0,0 l/m 0 min 0 min 0 W/m 6,4 km/h (2 Bft) 97,87 %
07.12.2022 05:38 3,3 C 2,8 C 1,1 C 98 % 1017,3 hPa 0,0 l/m 0 min 0 min 0 W/m 3,2 km/h (1 Bft) 95,74 %
07.12.2022 05:40 3,3 C 2,8 C 1,1 C 98 % 1017,3 hPa 0,0 l/m 0 min 0 min 0 W/m 3,2 km/h (1 Bft) 97,87 %
07.12.2022 05:42 3,3 C 2,8 C 1,1 C 98 % 1017,3 hPa 0,0 l/m 0 min 0 min 0 W/m 3,2 km/h (1 Bft) 95,65 %
07.12.2022 05:44 3,3 C 2,8 C 1,1 C 98 % 1017,3 hPa 0,0 l/m 0 min 0 min 0 W/m 6,4 km/h (2 Bft) 93,62 %
07.12.2022 05:46 3,3 C 2,8 C 1,1 C 98 % 1017,3 hPa 0,0 l/m 0 min 0 min 0 W/m 3,2 km/h (1 Bft) 93,62 %
07.12.2022 05:48 3,3 C 2,8 C 1,1 C 98 % 1017,3 hPa 0,0 l/m 0 min 0 min 0 W/m 3,2 km/h (1 Bft) 93,62 %
07.12.2022 05:50 3,3 C 2,8 C 1,1 C 98 % 1017,3 hPa 0,0 l/m 0 min 0 min 0 W/m 3,2 km/h (1 Bft) 93,62 %
07.12.2022 05:52 3,3 C 2,8 C 1,1 C 98 % 1017,2 hPa 0,0 l/m 0 min 0 min 0 W/m 3,2 km/h (1 Bft) 95,74 %
07.12.2022 05:54 3,3 C 2,8 C 1,1 C 98 % 1017,3 hPa 0,0 l/m 0 min 0 min 0 W/m 3,2 km/h (1 Bft) 95,65 %
07.12.2022 05:56 3,3 C 2,8 C 1,1 C 98 % 1017,2 hPa 0,0 l/m 0 min 0 min 0 W/m 3,2 km/h (1 Bft) 91,49 %
07.12.2022 05:58 3,3 C 2,8 C 1,1 C 98 % 1017,2 hPa 0,0 l/m 0 min 0 min 0 W/m 3,2 km/h (1 Bft) 93,62 %
07.12.2022 06:00 3,3 C 2,8 C 1,1 C 98 % 1017,2 hPa 0,0 l/m 0 min 0 min 0 W/m 6,4 km/h (2 Bft) 93,62 %
07.12.2022 06:02 3,3 C 2,8 C 1,1 C 98 % 1017,3 hPa 0,0 l/m 0 min 0 min 0 W/m 6,4 km/h (2 Bft) 89,36 %
07.12.2022 06:04 3,3 C 2,8 C 1,1 C 98 % 1017,2 hPa 0,0 l/m 0 min 0 min 0 W/m 6,4 km/h (2 Bft) 95,74 %
07.12.2022 06:08 3,3 C 2,8 C 1,1 C 98 % 1017,3 hPa 0,0 l/m 0 min 0 min 0 W/m 3,2 km/h (1 Bft) 95,70 %
07.12.2022 06:10 3,3 C 2,8 C 1,1 C 98 % 1017,3 hPa 0,0 l/m 0 min 0 min 0 W/m 6,4 km/h (2 Bft) 93,62 %
07.12.2022 06:12 3,3 C 2,8 C 1,1 C 98 % 1017,3 hPa 0,0 l/m 0 min 0 min 0 W/m 9,7 km/h (2 Bft) 95,74 %
07.12.2022 06:14 3,3 C 2,8 C 1,1 C 98 % 1017,4 hPa 0,0 l/m 0 min 0 min 0 W/m 9,7 km/h (2 Bft) 89,36 %
07.12.2022 06:16 3,4 C 2,8 C 1,1 C 98 % 1017,4 hPa 0,0 l/m 0 min 0 min 0 W/m 6,4 km/h (2 Bft) 97,87 %
07.12.2022 06:18 3,4 C 2,8 C 1,1 C 98 % 1017,4 hPa 0,0 l/m 0 min 0 min 0 W/m 3,2 km/h (1 Bft) 93,48 %
07.12.2022 06:20 3,3 C 2,8 C 1,1 C 98 % 1017,3 hPa 0,0 l/m 0 min 0 min 0 W/m 6,4 km/h (2 Bft) 97,87 %
07.12.2022 06:22 3,4 C 2,8 C 1,1 C 98 % 1017,4 hPa 0,0 l/m 0 min 0 min 0 W/m 6,4 km/h (2 Bft) 95,74 %
07.12.2022 06:24 3,4 C 2,8 C 1,1 C 98 % 1017,4 hPa 0,0 l/m 0 min 0 min 0 W/m 6,4 km/h (2 Bft) 97,87 %
07.12.2022 06:26 3,4 C 2,8 C 1,1 C 98 % 1017,3 hPa 0,0 l/m 0 min 0 min 0 W/m 3,2 km/h (1 Bft) 100,00 %
07.12.2022 06:28 3,4 C 2,8 C 1,7 C 98 % 1017,3 hPa 0,0 l/m 0 min 0 min 0 W/m 3,2 km/h (1 Bft) 97,87 %
07.12.2022 06:30 3,4 C 2,8 C 1,1 C 98 % 1017,3 hPa 0,0 l/m 0 min 0 min 0 W/m 6,4 km/h (2 Bft) 100,00 %
07.12.2022 06:32 3,4 C 2,8 C 1,7 C 98 % 1017,3 hPa 0,0 l/m 0 min 0 min 0 W/m 3,2 km/h (1 Bft) 97,87 %
07.12.2022 06:34 3,4 C 2,8 C 1,7 C 98 % 1017,3 hPa 0,0 l/m 0 min 0 min 0 W/m 3,2 km/h (1 Bft) 97,87 %
07.12.2022 06:36 3,4 C 2,8 C 1,7 C 98 % 1017,2 hPa 0,0 l/m 0 min 0 min 0 W/m 3,2 km/h (1 Bft) 97,87 %
07.12.2022 06:38 3,4 C 2,8 C 1,7 C 98 % 1017,3 hPa 0,0 l/m 0 min 0 min 0 W/m 3,2 km/h (1 Bft) 97,87 %
07.12.2022 06:40 3,4 C 2,8 C 1,7 C 98 % 1017,2 hPa 0,0 l/m 0 min 0 min 0 W/m 3,2 km/h (1 Bft) 97,87 %
07.12.2022 06:42 3,4 C 2,8 C 1,7 C 98 % 1017,2 hPa 0,0 l/m 0 min 0 min 0 W/m 9,7 km/h (2 Bft) 100,00 %
07.12.2022 06:44 3,4 C 2,8 C 1,7 C 98 % 1017,2 hPa 0,0 l/m 0 min 0 min 0 W/m 6,4 km/h (2 Bft) 93,62 %
07.12.2022 06:46 3,4 C 3,3 C 1,7 C 98 % 1017,2 hPa 0,0 l/m 0 min 0 min 0 W/m 6,4 km/h (2 Bft) 95,74 %
07.12.2022 06:48 3,4 C 3,3 C 1,7 C 98 % 1017,1 hPa 0,0 l/m 0 min 0 min 0 W/m 6,4 km/h (2 Bft) 95,74 %
07.12.2022 06:50 3,5 C 3,3 C 1,7 C 98 % 1017,1 hPa 0,0 l/m 0 min 0 min 0 W/m 3,2 km/h (1 Bft) 95,74 %
07.12.2022 06:52 3,4 C 3,3 C 1,7 C 98 % 1017,1 hPa 0,0 l/m 0 min 0 min 0 W/m 3,2 km/h (1 Bft) 93,62 %
07.12.2022 06:54 3,5 C 3,3 C 1,7 C 98 % 1017,2 hPa 0,0 l/m 0 min 0 min 0 W/m 6,4 km/h (2 Bft) 95,65 %
07.12.2022 06:56 3,5 C 3,3 C 1,7 C 98 % 1017,2 hPa 0,0 l/m 0 min 0 min 0 W/m 3,2 km/h (1 Bft) 97,87 %
07.12.2022 06:58 3,5 C 3,3 C 1,7 C 98 % 1017,2 hPa 0,0 l/m 0 min 0 min 0 W/m 3,2 km/h (1 Bft) 97,87 %
07.12.2022 07:00 3,5 C 3,3 C 1,7 C 98 % 1017,2 hPa 0,0 l/m 0 min 0 min 0 W/m 3,2 km/h (1 Bft) 97,87 %
07.12.2022 07:02 3,6 C 3,3 C 1,7 C 98 % 1017,2 hPa 0,0 l/m 0 min 0 min 0 W/m 6,4 km/h (2 Bft) 97,87 %
07.12.2022 07:04 3,6 C 3,3 C 1,7 C 98 % 1017,2 hPa 0,0 l/m 0 min 0 min 0 W/m 3,2 km/h (1 Bft) 97,87 %
07.12.2022 07:06 3,6 C 3,3 C 1,7 C 98 % 1017,2 hPa 0,0 l/m 0 min 0 min 0 W/m 6,4 km/h (2 Bft) 95,65 %
07.12.2022 07:08 3,6 C 3,3 C 1,7 C 98 % 1017,2 hPa 0,0 l/m 0 min 0 min 0 W/m 6,4 km/h (2 Bft) 97,87 %
07.12.2022 07:10 3,6 C 3,3 C 1,7 C 98 % 1017,2 hPa 0,0 l/m 0 min 0 min 0 W/m 3,2 km/h (1 Bft) 97,87 %
07.12.2022 07:12 3,6 C 3,3 C 1,7 C 98 % 1017,2 hPa 0,0 l/m 0 min 0 min 0 W/m 6,4 km/h (2 Bft) 95,74 %
07.12.2022 07:14 3,6 C 3,3 C 1,7 C 98 % 1017,2 hPa 0,0 l/m 0 min 0 min 0 W/m 6,4 km/h (2 Bft) 97,87 %
07.12.2022 07:16 3,6 C 3,3 C 1,7 C 98 % 1017,2 hPa 0,0 l/m 0 min 0 min 0 W/m 6,4 km/h (2 Bft) 97,87 %
07.12.2022 07:18 3,6 C 3,3 C 1,7 C 98 % 1017,2 hPa 0,0 l/m 0 min 0 min 0 W/m 9,7 km/h (2 Bft) 97,83 %
07.12.2022 07:20 3,6 C 3,3 C 1,7 C 98 % 1017,3 hPa 0,0 l/m 0 min 0 min 0 W/m 6,4 km/h (2 Bft) 95,74 %
07.12.2022 07:22 3,6 C 3,3 C 1,7 C 98 % 1017,3 hPa 0,0 l/m 0 min 0 min 0 W/m 3,2 km/h (1 Bft) 97,87 %
07.12.2022 07:24 3,6 C 3,3 C 1,7 C 98 % 1017,3 hPa 0,0 l/m 0 min 0 min 0 W/m 9,7 km/h (2 Bft) 85,11 %
07.12.2022 07:26 3,6 C 3,3 C 1,7 C 98 % 1017,3 hPa 0,0 l/m 0 min 0 min 0 W/m 3,2 km/h (1 Bft) 70,45 %
07.12.2022 07:28 3,6 C 3,3 C 1,7 C 98 % 1017,3 hPa 0,0 l/m 0 min 0 min 0 W/m 6,4 km/h (2 Bft) 97,87 %
07.12.2022 07:30 3,6 C 3,3 C 1,7 C 98 % 1017,3 hPa 0,0 l/m 0 min 0 min 0 W/m 6,4 km/h (2 Bft) 100,00 %
07.12.2022 07:32 3,6 C 3,3 C 1,7 C 98 % 1017,3 hPa 0,0 l/m 0 min 0 min 0 W/m 6,4 km/h (2 Bft) 100,00 %
07.12.2022 07:34 3,6 C 3,3 C 1,7 C 98 % 1017,2 hPa 0,0 l/m 0 min 0 min 0 W/m 6,4 km/h (2 Bft) 97,87 %
07.12.2022 07:36 3,6 C 3,3 C 1,7 C 98 % 1017,2 hPa 0,0 l/m 0 min 0 min 0 W/m 6,4 km/h (2 Bft) 95,74 %
07.12.2022 07:38 3,6 C 3,3 C 1,7 C 98 % 1017,2 hPa 0,0 l/m 0 min 0 min 0 W/m 6,4 km/h (2 Bft) 97,87 %
07.12.2022 07:40 3,6 C 3,3 C 1,7 C 98 % 1017,2 hPa 0,0 l/m 0 min 0 min 0 W/m 6,4 km/h (2 Bft) 97,87 %
07.12.2022 07:42 3,6 C 3,3 C 1,7 C 98 % 1017,2 hPa 0,0 l/m 0 min 0 min 0 W/m 6,4 km/h (2 Bft) 97,83 %
07.12.2022 07:44 3,6 C 3,3 C 1,7 C 98 % 1017,2 hPa 0,0 l/m 0 min 0 min 0 W/m 3,2 km/h (1 Bft) 97,87 %
07.12.2022 07:46 3,6 C 3,3 C 1,7 C 98 % 1017,2 hPa 0,0 l/m 0 min 0 min 0 W/m 6,4 km/h (2 Bft) 97,87 %
07.12.2022 07:48 3,6 C 3,3 C 1,7 C 98 % 1017,2 hPa 0,0 l/m 0 min 0 min 0 W/m 6,4 km/h (2 Bft) 97,87 %
07.12.2022 07:50 3,6 C 3,3 C 1,7 C 98 % 1017,3 hPa 0,0 l/m 0 min 0 min 0 W/m 6,4 km/h (2 Bft) 97,87 %
07.12.2022 07:52 3,6 C 3,3 C 1,7 C 98 % 1017,3 hPa 0,0 l/m 0 min 0 min 0 W/m 6,4 km/h (2 Bft) 97,87 %
07.12.2022 07:54 3,6 C 3,3 C 1,7 C 98 % 1017,2 hPa 0,0 l/m 0 min 0 min 0 W/m 3,2 km/h (1 Bft) 97,37 %
07.12.2022 07:56 3,6 C 3,3 C 1,7 C 98 % 1017,3 hPa 0,0 l/m 0 min 0 min 0 W/m 3,2 km/h (1 Bft) 96,55 %
07.12.2022 07:58 3,6 C 3,3 C 1,7 C 98 % 1017,3 hPa 0,0 l/m 0 min 0 min 0 W/m 0,0 km/h (0 Bft) 94,29 %
07.12.2022 08:00 3,6 C 2,8 C 1,7 C 98 % 1017,3 hPa 0,0 l/m 0 min 0 min 0 W/m 3,2 km/h (1 Bft) 97,87 %
07.12.2022 08:02 3,6 C 2,8 C 1,7 C 98 % 1017,3 hPa 0,0 l/m 0 min 0 min 0 W/m 3,2 km/h (1 Bft) 97,87 %
07.12.2022 08:04 3,6 C 2,8 C 1,7 C 98 % 1017,2 hPa 0,0 l/m 0 min 0 min 0 W/m 3,2 km/h (1 Bft) 100,00 %
07.12.2022 08:06 3,6 C 2,8 C 1,7 C 98 % 1017,3 hPa 0,0 l/m 0 min 0 min 0 W/m 3,2 km/h (1 Bft) 96,55 %
07.12.2022 08:08 3,5 C 2,8 C 1,7 C 98 % 1017,3 hPa 0,0 l/m 0 min 0 min 0 W/m 3,2 km/h (1 Bft) 100,00 %
07.12.2022 08:10 3,5 C 2,8 C 1,7 C 98 % 1017,3 hPa 0,0 l/m 0 min 0 min 0 W/m 0,0 km/h (0 Bft) 100,00 %
07.12.2022 08:12 3,5 C 2,8 C 1,7 C 98 % 1017,3 hPa 0,0 l/m 0 min 0 min 0 W/m 0,0 km/h (0 Bft) 100,00 %
07.12.2022 08:14 3,5 C 2,8 C 1,7 C 98 % 1017,3 hPa 0,0 l/m 0 min 0 min 0 W/m 3,2 km/h (1 Bft) 100,00 %
07.12.2022 08:16 3,4 C 2,8 C 1,7 C 98 % 1017,3 hPa 0,0 l/m 0 min 0 min 0 W/m 3,2 km/h (1 Bft) 98,28 %
07.12.2022 08:18 3,4 C 2,8 C 1,7 C 98 % 1017,3 hPa 0,0 l/m 0 min 0 min 0 W/m 0,0 km/h (0 Bft) 100,00 %
07.12.2022 08:20 3,4 C 2,8 C 1,7 C 98 % 1017,2 hPa 0,0 l/m 0 min 0 min 0 W/m 3,2 km/h (1 Bft) 100,00 %
07.12.2022 08:22 3,4 C 2,8 C 1,7 C 98 % 1017,3 hPa 0,0 l/m 0 min 0 min 0 W/m 3,2 km/h (1 Bft) 100,00 %
07.12.2022 08:24 3,4 C 2,8 C 1,7 C 98 % 1017,3 hPa 0,0 l/m 0 min 0 min 0 W/m 6,4 km/h (2 Bft) 100,00 %
07.12.2022 08:26 3,4 C 2,8 C 1,1 C 98 % 1017,3 hPa 0,0 l/m 0 min 0 min 0 W/m 12,9 km/h (3 Bft) 100,00 %
07.12.2022 08:28 3,4 C 2,8 C 1,1 C 98 % 1017,2 hPa 0,0 l/m 0 min 0 min 3 W/m 6,4 km/h (2 Bft) 100,00 %
07.12.2022 08:30 3,4 C 2,8 C 1,1 C 98 % 1017,2 hPa 0,0 l/m 0 min 0 min 5 W/m 9,7 km/h (2 Bft) 97,87 %
07.12.2022 08:32 3,3 C 2,8 C 1,1 C 98 % 1017,3 hPa 0,0 l/m 0 min 0 min 5 W/m 6,4 km/h (2 Bft) 97,83 %
07.12.2022 08:34 3,3 C 2,8 C 1,1 C 98 % 1017,3 hPa 0,0 l/m 0 min 0 min 5 W/m 6,4 km/h (2 Bft) 100,00 %
07.12.2022 08:36 3,3 C 2,8 C 1,1 C 98 % 1017,3 hPa 0,0 l/m 0 min 0 min 7 W/m 6,4 km/h (2 Bft) 95,74 %
07.12.2022 08:38 3,3 C 2,8 C 1,1 C 98 % 1017,3 hPa 0,0 l/m 0 min 0 min 7 W/m 3,2 km/h (1 Bft) 100,00 %
07.12.2022 08:40 3,3 C 2,8 C 1,1 C 98 % 1017,4 hPa 0,0 l/m 0 min 0 min 7 W/m 6,4 km/h (2 Bft) 97,87 %
07.12.2022 08:42 3,3 C 2,8 C 1,1 C 98 % 1017,4 hPa 0,0 l/m 0 min 0 min 8 W/m 3,2 km/h (1 Bft) 97,87 %
07.12.2022 08:44 3,2 C 2,8 C 1,1 C 98 % 1017,4 hPa 0,0 l/m 0 min 0 min 9 W/m 6,4 km/h (2 Bft) 95,65 %
07.12.2022 08:46 3,2 C 2,8 C 1,1 C 98 % 1017,4 hPa 0,0 l/m 0 min 0 min 11 W/m 6,4 km/h (2 Bft) 97,87 %
07.12.2022 08:48 3,2 C 2,8 C 1,1 C 98 % 1017,4 hPa 0,0 l/m 0 min 0 min 11 W/m 6,4 km/h (2 Bft) 97,87 %
07.12.2022 08:50 3,2 C 2,8 C 1,1 C 98 % 1017,4 hPa 0,0 l/m 0 min 0 min 12 W/m 6,4 km/h (2 Bft) 97,87 %
07.12.2022 08:52 3,2 C 2,8 C 1,1 C 98 % 1017,4 hPa 0,0 l/m 0 min 0 min 12 W/m 6,4 km/h (2 Bft) 95,74 %
07.12.2022 08:54 3,2 C 2,8 C 1,1 C 98 % 1017,4 hPa 0,0 l/m 0 min 0 min 14 W/m 3,2 km/h (1 Bft) 97,87 %
07.12.2022 08:56 3,1 C 2,8 C 1,1 C 98 % 1017,4 hPa 0,0 l/m 0 min 0 min 14 W/m 6,4 km/h (2 Bft) 97,83 %
07.12.2022 08:58 3,1 C 2,8 C 1,1 C 98 % 1017,4 hPa 0,0 l/m 0 min 0 min 14 W/m 6,4 km/h (2 Bft) 95,74 %
07.12.2022 09:00 3,1 C 2,8 C 1,1 C 98 % 1017,5 hPa 0,0 l/m 0 min 0 min 16 W/m 6,4 km/h (2 Bft) 97,87 %
07.12.2022 09:02 3,1 C 2,8 C 1,1 C 98 % 1017,5 hPa 0,0 l/m 0 min 0 min 16 W/m 3,2 km/h (1 Bft) 93,62 %
07.12.2022 09:04 3,1 C 2,8 C 1,1 C 98 % 1017,4 hPa 0,0 l/m 0 min 0 min 17 W/m 3,2 km/h (1 Bft) 97,87 %
07.12.2022 09:06 3,1 C 2,8 C 1,1 C 98 % 1017,5 hPa 0,0 l/m 0 min 0 min 18 W/m 6,4 km/h (2 Bft) 96,55 %
07.12.2022 09:08 3,1 C 2,8 C 1,1 C 98 % 1017,5 hPa 0,0 l/m 0 min 0 min 20 W/m 3,2 km/h (1 Bft) 97,14 %
07.12.2022 09:10 3,1 C 2,8 C 1,1 C 98 % 1017,5 hPa 0,0 l/m 0 min 0 min 22 W/m 3,2 km/h (1 Bft) 91,49 %
07.12.2022 09:12 3,1 C 2,8 C 1,1 C 98 % 1017,5 hPa 0,0 l/m 0 min 0 min 23 W/m 3,2 km/h (1 Bft) 95,74 %
07.12.2022 09:14 3,1 C 2,8 C 1,1 C 98 % 1017,5 hPa 0,0 l/m 0 min 0 min 25 W/m 3,2 km/h (1 Bft) 97,87 %
07.12.2022 09:16 3,1 C 2,8 C 1,1 C 98 % 1017,6 hPa 0,0 l/m 0 min 0 min 30 W/m 3,2 km/h (1 Bft) 93,62 %
07.12.2022 09:18 3,1 C 2,8 C 1,1 C 98 % 1017,5 hPa 0,0 l/m 0 min 0 min 39 W/m 3,2 km/h (1 Bft) 95,74 %
07.12.2022 09:20 3,1 C 2,8 C 1,1 C 98 % 1017,6 hPa 0,0 l/m 0 min 0 min 40 W/m 3,2 km/h (1 Bft) 93,48 %
07.12.2022 09:22 3,1 C 2,8 C 1,1 C 98 % 1017,6 hPa 0,0 l/m 0 min 0 min 38 W/m 6,4 km/h (2 Bft) 93,62 %
07.12.2022 09:24 3,1 C 2,8 C 1,1 C 98 % 1017,6 hPa 0,0 l/m 0 min 0 min 38 W/m 12,9 km/h (3 Bft) 95,74 %
07.12.2022 09:26 3,1 C 2,8 C 1,1 C 98 % 1017,6 hPa 0,0 l/m 0 min 0 min 40 W/m 6,4 km/h (2 Bft) 95,74 %
07.12.2022 09:28 3,2 C 3,3 C 1,1 C 98 % 1017,6 hPa 0,0 l/m 0 min 0 min 40 W/m 6,4 km/h (2 Bft) 93,62 %
07.12.2022 09:30 3,2 C 3,3 C 1,1 C 98 % 1017,6 hPa 0,0 l/m 0 min 0 min 40 W/m 3,2 km/h (1 Bft) 91,30 %
07.12.2022 09:32 3,3 C 3,3 C 1,1 C 98 % 1017,7 hPa 0,0 l/m 0 min 0 min 40 W/m 3,2 km/h (1 Bft) 91,49 %
07.12.2022 09:34 3,3 C 3,3 C 1,1 C 98 % 1017,6 hPa 0,0 l/m 0 min 0 min 32 W/m 9,7 km/h (2 Bft) 93,62 %
07.12.2022 09:36 3,3 C 3,3 C 1,1 C 98 % 1017,6 hPa 0,0 l/m 0 min 0 min 30 W/m 3,2 km/h (1 Bft) 93,62 %
07.12.2022 09:38 3,3 C 3,3 C 1,1 C 98 % 1017,6 hPa 0,0 l/m 0 min 0 min 31 W/m 6,4 km/h (2 Bft) 95,74 %
07.12.2022 09:40 3,3 C 3,3 C 1,1 C 98 % 1017,6 hPa 0,0 l/m 0 min 0 min 29 W/m 9,7 km/h (2 Bft) 91,49 %
07.12.2022 09:42 3,4 C 3,3 C 1,1 C 98 % 1017,7 hPa 0,0 l/m 0 min 0 min 32 W/m 6,4 km/h (2 Bft) 93,48 %
07.12.2022 09:44 3,4 C 3,3 C 1,7 C 98 % 1017,7 hPa 0,0 l/m 0 min 0 min 42 W/m 3,2 km/h (1 Bft) 95,74 %
07.12.2022 09:46 3,4 C 3,3 C 1,7 C 98 % 1017,6 hPa 0,0 l/m 0 min 0 min 60 W/m 3,2 km/h (1 Bft) 95,74 %
07.12.2022 09:48 3,4 C 3,3 C 1,7 C 98 % 1017,6 hPa 0,0 l/m 0 min 0 min 72 W/m 3,2 km/h (1 Bft) 95,74 %
07.12.2022 09:50 3,5 C 3,9 C 1,7 C 98 % 1017,6 hPa 0,0 l/m 0 min 0 min 63 W/m 3,2 km/h (1 Bft) 97,87 %
07.12.2022 09:52 3,6 C 3,9 C 1,7 C 98 % 1017,5 hPa 0,0 l/m 0 min 0 min 54 W/m 3,2 km/h (1 Bft) 100,00 %
07.12.2022 09:54 3,6 C 3,9 C 1,7 C 98 % 1017,5 hPa 0,0 l/m 0 min 0 min 55 W/m 6,4 km/h (2 Bft) 97,83 %
07.12.2022 09:56 3,6 C 3,9 C 1,7 C 98 % 1017,4 hPa 0,0 l/m 0 min 0 min 54 W/m 9,7 km/h (2 Bft) 100,00 %
07.12.2022 09:58 3,7 C 3,9 C 1,7 C 98 % 1017,5 hPa 0,0 l/m 0 min 0 min 46 W/m 9,7 km/h (2 Bft) 100,00 %
07.12.2022 10:00 3,7 C 3,9 C 1,7 C 98 % 1017,5 hPa 0,0 l/m 0 min 0 min 38 W/m 9,7 km/h (2 Bft) 97,87 %
07.12.2022 10:02 3,7 C 3,9 C 1,7 C 98 % 1017,5 hPa 0,0 l/m 0 min 0 min 35 W/m 6,4 km/h (2 Bft) 97,87 %
07.12.2022 10:04 3,7 C 3,3 C 1,7 C 98 % 1017,5 hPa 0,0 l/m 0 min 0 min 33 W/m 6,4 km/h (2 Bft) 100,00 %
07.12.2022 10:06 3,7 C 3,3 C 1,7 C 98 % 1017,5 hPa 0,0 l/m 0 min 0 min 35 W/m 9,7 km/h (2 Bft) 100,00 %
07.12.2022 10:08 3,7 C 3,9 C 1,7 C 98 % 1017,5 hPa 0,0 l/m 0 min 0 min 42 W/m 3,2 km/h (1 Bft) 97,14 %
07.12.2022 10:10 3,7 C 3,9 C 1,7 C 98 % 1017,5 hPa 0,0 l/m 0 min 0 min 49 W/m 9,7 km/h (2 Bft) 95,74 %
07.12.2022 10:12 3,7 C 3,9 C 1,7 C 98 % 1017,5 hPa 0,0 l/m 0 min 0 min 67 W/m 6,4 km/h (2 Bft) 97,87 %
07.12.2022 10:14 3,7 C 3,9 C 1,7 C 98 % 1017,5 hPa 0,0 l/m 0 min 0 min 81 W/m 6,4 km/h (2 Bft) 100,00 %
07.12.2022 10:16 3,7 C 3,9 C 1,7 C 98 % 1017,5 hPa 0,0 l/m 0 min 0 min 82 W/m 3,2 km/h (1 Bft) 97,87 %
07.12.2022 10:18 3,8 C 3,9 C 2,2 C 98 % 1017,5 hPa 0,0 l/m 0 min 0 min 76 W/m 6,4 km/h (2 Bft) 100,00 %
07.12.2022 10:20 3,8 C 3,9 C 2,2 C 98 % 1017,5 hPa 0,0 l/m 2 min 0 min 112 W/m 9,7 km/h (2 Bft) 100,00 %
07.12.2022 10:22 3,8 C 3,9 C 2,2 C 98 % 1017,5 hPa 0,0 l/m 2 min 0 min 164 W/m 3,2 km/h (1 Bft) 100,00 %
07.12.2022 10:24 3,8 C 3,9 C 1,7 C 98 % 1017,5 hPa 0,0 l/m 0 min 0 min 106 W/m 3,2 km/h (1 Bft) 100,00 %
07.12.2022 10:26 3,8 C 3,9 C 1,7 C 98 % 1017,5 hPa 0,0 l/m 0 min 0 min 48 W/m 6,4 km/h (2 Bft) 100,00 %
07.12.2022 10:28 3,8 C 3,9 C 1,7 C 98 % 1017,5 hPa 0,0 l/m 0 min 0 min 58 W/m 6,4 km/h (2 Bft) 97,87 %
07.12.2022 10:30 3,8 C 3,9 C 1,7 C 98 % 1017,5 hPa 0,0 l/m 0 min 0 min 91 W/m 6,4 km/h (2 Bft) 100,00 %
07.12.2022 10:32 3,8 C 3,9 C 1,7 C 98 % 1017,6 hPa 0,0 l/m 0 min 0 min 47 W/m 6,4 km/h (2 Bft) 100,00 %
07.12.2022 10:34 3,8 C 3,9 C 1,7 C 98 % 1017,6 hPa 0,0 l/m 0 min 0 min 75 W/m 3,2 km/h (1 Bft) 100,00 %
07.12.2022 10:36 3,9 C 3,9 C 2,2 C 98 % 1017,7 hPa 0,0 l/m 2 min 0 min 161 W/m 3,2 km/h (1 Bft) 100,00 %
07.12.2022 10:38 3,9 C 3,9 C 2,2 C 98 % 1017,7 hPa 0,0 l/m 2 min 0 min 204 W/m 9,7 km/h (2 Bft) 100,00 %
07.12.2022 10:40 3,9 C 4,4 C 2,2 C 98 % 1017,7 hPa 0,0 l/m 2 min 0 min 139 W/m 12,9 km/h (3 Bft) 100,00 %
07.12.2022 10:42 4,0 C 4,4 C 2,2 C 98 % 1017,6 hPa 0,0 l/m 0 min 0 min 101 W/m 12,9 km/h (3 Bft) 100,00 %
07.12.2022 10:44 4,1 C 4,4 C 2,2 C 98 % 1017,6 hPa 0,0 l/m 2 min 0 min 127 W/m 6,4 km/h (2 Bft) 100,00 %
07.12.2022 10:46 4,1 C 4,4 C 2,2 C 98 % 1017,7 hPa 0,0 l/m 0 min 0 min 76 W/m 6,4 km/h (2 Bft) 93,62 %
07.12.2022 10:48 4,1 C 4,4 C 2,2 C 98 % 1017,7 hPa 0,0 l/m 0 min 0 min 63 W/m 6,4 km/h (2 Bft) 97,87 %
07.12.2022 10:50 4,2 C 4,4 C 2,2 C 98 % 1017,6 hPa 0,0 l/m 0 min 0 min 65 W/m 6,4 km/h (2 Bft) 100,00 %
07.12.2022 10:52 4,2 C 4,4 C 2,2 C 98 % 1017,7 hPa 0,0 l/m 0 min 0 min 72 W/m 6,4 km/h (2 Bft) 97,87 %
07.12.2022 10:54 4,2 C 4,4 C 2,2 C 98 % 1017,7 hPa 0,0 l/m 0 min 0 min 76 W/m 9,7 km/h (2 Bft) 100,00 %
07.12.2022 10:56 4,2 C 4,4 C 2,2 C 98 % 1017,7 hPa 0,0 l/m 0 min 0 min 71 W/m 6,4 km/h (2 Bft) 100,00 %
07.12.2022 10:58 4,2 C 4,4 C 2,8 C 98 % 1017,6 hPa 0,0 l/m 0 min 0 min 93 W/m 6,4 km/h (2 Bft) 95,74 %
07.12.2022 11:00 4,3 C 4,4 C 2,8 C 98 % 1017,6 hPa 0,0 l/m 0 min 0 min 98 W/m 6,4 km/h (2 Bft) 100,00 %
07.12.2022 11:02 4,3 C 4,4 C 2,8 C 98 % 1017,6 hPa 0,0 l/m 0 min 0 min 100 W/m 6,4 km/h (2 Bft) 97,87 %
07.12.2022 11:04 4,3 C 4,4 C 2,8 C 97 % 1017,6 hPa 0,0 l/m 0 min 0 min 93 W/m 6,4 km/h (2 Bft) 100,00 %
07.12.2022 11:06 4,4 C 4,4 C 2,8 C 97 % 1017,6 hPa 0,0 l/m 0 min 0 min 92 W/m 6,4 km/h (2 Bft) 96,55 %
07.12.2022 11:08 4,4 C 4,4 C 2,8 C 98 % 1017,7 hPa 0,0 l/m 0 min 0 min 88 W/m 6,4 km/h (2 Bft) 100,00 %
07.12.2022 11:10 4,4 C 4,4 C 2,8 C 98 % 1017,6 hPa 0,0 l/m 0 min 0 min 76 W/m 12,9 km/h (3 Bft) 97,87 %
07.12.2022 11:12 4,5 C 4,4 C 2,8 C 97 % 1017,6 hPa 0,0 l/m 0 min 0 min 75 W/m 12,9 km/h (3 Bft) 100,00 %
07.12.2022 11:14 4,5 C 4,4 C 2,8 C 97 % 1017,5 hPa 0,0 l/m 0 min 0 min 78 W/m 9,7 km/h (2 Bft) 100,00 %
07.12.2022 11:16 4,6 C 4,4 C 2,8 C 97 % 1017,5 hPa 0,0 l/m 0 min 0 min 81 W/m 12,9 km/h (3 Bft) 93,62 %
07.12.2022 11:18 4,6 C 4,4 C 2,8 C 97 % 1017,5 hPa 0,0 l/m 0 min 0 min 80 W/m 12,9 km/h (3 Bft) 95,65 %
07.12.2022 11:20 4,6 C 4,4 C 2,8 C 97 % 1017,5 hPa 0,0 l/m 0 min 0 min 68 W/m 3,2 km/h (1 Bft) 95,74 %
07.12.2022 11:22 4,6 C 4,4 C 2,8 C 97 % 1017,4 hPa 0,0 l/m 0 min 0 min 56 W/m 6,4 km/h (2 Bft) 95,74 %
07.12.2022 11:24 4,6 C 4,4 C 2,8 C 97 % 1017,4 hPa 0,0 l/m 0 min 0 min 57 W/m 9,7 km/h (2 Bft) 97,87 %
07.12.2022 11:26 4,5 C 4,4 C 2,8 C 97 % 1017,4 hPa 0,0 l/m 0 min 0 min 59 W/m 3,2 km/h (1 Bft) 95,74 %
07.12.2022 11:28 4,5 C 4,4 C 2,8 C 97 % 1017,4 hPa 0,0 l/m 0 min 0 min 56 W/m 6,4 km/h (2 Bft) 93,62 %
07.12.2022 11:30 4,5 C 4,4 C 2,8 C 97 % 1017,4 hPa 0,0 l/m 0 min 0 min 61 W/m 3,2 km/h (1 Bft) 97,83 %
07.12.2022 11:32 4,5 C 4,4 C 2,8 C 97 % 1017,4 hPa 0,0 l/m 0 min 0 min 60 W/m 6,4 km/h (2 Bft) 97,87 %
07.12.2022 11:34 4,5 C 4,4 C 2,8 C 97 % 1017,4 hPa 0,0 l/m 0 min 0 min 67 W/m 6,4 km/h (2 Bft) 95,74 %
07.12.2022 11:36 4,5 C 4,4 C 2,8 C 96 % 1017,4 hPa 0,0 l/m 0 min 0 min 73 W/m 9,7 km/h (2 Bft) 97,87 %
07.12.2022 11:38 4,5 C 4,4 C 2,8 C 97 % 1017,3 hPa 0,0 l/m 0 min 0 min 66 W/m 6,4 km/h (2 Bft) 93,62 %
07.12.2022 11:40 4,5 C 4,4 C 2,8 C 97 % 1017,3 hPa 0,0 l/m 0 min 0 min 63 W/m 6,4 km/h (2 Bft) 95,65 %
07.12.2022 11:42 4,5 C 4,4 C 2,8 C 96 % 1017,3 hPa 0,0 l/m 0 min 0 min 62 W/m 9,7 km/h (2 Bft) 97,87 %
07.12.2022 11:44 4,6 C 5,0 C 2,8 C 96 % 1017,3 hPa 0,0 l/m 0 min 0 min 57 W/m 3,2 km/h (1 Bft) 93,62 %
07.12.2022 11:46 4,6 C 5,0 C 2,8 C 96 % 1017,2 hPa 0,0 l/m 0 min 0 min 59 W/m 3,2 km/h (1 Bft) 93,62 %
07.12.2022 11:48 4,6 C 5,0 C 2,8 C 96 % 1017,2 hPa 0,0 l/m 0 min 0 min 59 W/m 6,4 km/h (2 Bft) 92,59 %
07.12.2022 11:50 4,6 C 5,0 C 2,8 C 96 % 1017,1 hPa 0,0 l/m 0 min 0 min 60 W/m 6,4 km/h (2 Bft) 93,48 %
07.12.2022 11:52 4,7 C 5,0 C 2,8 C 96 % 1017,0 hPa 0,0 l/m 0 min 0 min 56 W/m 12,9 km/h (3 Bft) 93,62 %
07.12.2022 11:54 4,7 C 5,0 C 2,8 C 96 % 1017,1 hPa 0,0 l/m 0 min 0 min 43 W/m 6,4 km/h (2 Bft) 95,74 %
07.12.2022 11:56 4,8 C 5,0 C 2,8 C 96 % 1017,0 hPa 0,0 l/m 0 min 0 min 42 W/m 6,4 km/h (2 Bft) 95,74 %
07.12.2022 11:58 4,8 C 5,0 C 2,8 C 96 % 1017,0 hPa 0,0 l/m 0 min 0 min 42 W/m 9,7 km/h (2 Bft) 95,74 %
07.12.2022 12:00 4,9 C 5,0 C 2,8 C 96 % 1017,0 hPa 0,0 l/m 0 min 0 min 45 W/m 3,2 km/h (1 Bft) 95,74 %
07.12.2022 12:02 4,9 C 5,0 C 2,8 C 96 % 1016,9 hPa 0,0 l/m 0 min 0 min 47 W/m 6,4 km/h (2 Bft) 93,48 %
07.12.2022 12:04 5,0 C 5,0 C 2,8 C 96 % 1017,0 hPa 0,0 l/m 0 min 0 min 47 W/m 6,4 km/h (2 Bft) 95,74 %
07.12.2022 12:08 5,1 C 5,0 C 2,8 C 96 % 1016,9 hPa 0,0 l/m 0 min 0 min 46 W/m 6,4 km/h (2 Bft) 94,79 %
07.12.2022 12:10 5,2 C 5,0 C 2,8 C 95 % 1017,0 hPa 0,0 l/m 0 min 0 min 46 W/m 9,7 km/h (2 Bft) 95,74 %
07.12.2022 12:12 5,2 C 5,0 C 2,8 C 95 % 1016,9 hPa 0,0 l/m 0 min 0 min 45 W/m 12,9 km/h (3 Bft) 91,49 %
07.12.2022 12:14 5,2 C 5,0 C 3,3 C 95 % 1016,9 hPa 0,0 l/m 0 min 0 min 47 W/m 12,9 km/h (3 Bft) 95,65 %
07.12.2022 12:16 5,3 C 5,0 C 3,3 C 95 % 1016,9 hPa 0,0 l/m 0 min 0 min 47 W/m 6,4 km/h (2 Bft) 95,74 %
07.12.2022 12:18 5,3 C 5,6 C 3,3 C 95 % 1016,9 hPa 0,0 l/m 0 min 0 min 51 W/m 12,9 km/h (3 Bft) 95,74 %
07.12.2022 12:20 5,3 C 5,6 C 3,3 C 95 % 1016,9 hPa 0,0 l/m 0 min 0 min 58 W/m 12,9 km/h (3 Bft) 93,62 %
07.12.2022 12:22 5,4 C 5,6 C 3,3 C 94 % 1016,9 hPa 0,0 l/m 0 min 0 min 75 W/m 9,7 km/h (2 Bft) 95,74 %
07.12.2022 12:24 5,4 C 5,6 C 3,3 C 94 % 1016,9 hPa 0,0 l/m 0 min 0 min 84 W/m 12,9 km/h (3 Bft) 97,87 %
07.12.2022 12:26 5,4 C 5,6 C 3,3 C 94 % 1016,8 hPa 0,0 l/m 0 min 0 min 105 W/m 12,9 km/h (3 Bft) 91,30 %
07.12.2022 12:28 5,5 C 5,6 C 3,3 C 94 % 1016,8 hPa 0,0 l/m 0 min 0 min 129 W/m 9,7 km/h (2 Bft) 93,62 %
07.12.2022 12:30 5,6 C 6,1 C 3,3 C 94 % 1016,8 hPa 0,0 l/m 0 min 0 min 151 W/m 6,4 km/h (2 Bft) 97,87 %
07.12.2022 12:32 5,7 C 6,1 C 3,9 C 94 % 1016,7 hPa 0,0 l/m 0 min 0 min 155 W/m 12,9 km/h (3 Bft) 100,00 %
07.12.2022 12:34 5,7 C 6,7 C 3,9 C 94 % 1016,7 hPa 0,0 l/m 0 min 0 min 138 W/m 12,9 km/h (3 Bft) 97,87 %
07.12.2022 12:36 5,8 C 6,1 C 3,9 C 94 % 1016,7 hPa 0,0 l/m 0 min 0 min 133 W/m 6,4 km/h (2 Bft) 97,87 %
07.12.2022 12:38 5,8 C 6,1 C 3,9 C 94 % 1016,7 hPa 0,0 l/m 0 min 0 min 121 W/m 9,7 km/h (2 Bft) 100,00 %
07.12.2022 12:40 5,7 C 6,1 C 3,9 C 93 % 1016,7 hPa 0,0 l/m 0 min 0 min 121 W/m 12,9 km/h (3 Bft) 100,00 %
07.12.2022 12:42 5,7 C 6,1 C 3,9 C 93 % 1016,7 hPa 0,0 l/m 0 min 0 min 140 W/m 9,7 km/h (2 Bft) 100,00 %
07.12.2022 12:44 5,7 C 6,1 C 3,9 C 93 % 1016,6 hPa 0,0 l/m 0 min 0 min 140 W/m 6,4 km/h (2 Bft) 97,87 %
07.12.2022 12:46 5,7 C 6,1 C 3,9 C 93 % 1016,7 hPa 0,0 l/m 0 min 0 min 118 W/m 12,9 km/h (3 Bft) 100,00 %
07.12.2022 12:48 5,7 C 6,7 C 3,3 C 93 % 1016,6 hPa 0,0 l/m 0 min 0 min 148 W/m 12,9 km/h (3 Bft) 97,87 %
07.12.2022 12:50 5,8 C 6,7 C 3,3 C 93 % 1016,6 hPa 0,0 l/m 2 min 0 min 177 W/m 6,4 km/h (2 Bft) 100,00 %
07.12.2022 12:52 5,8 C 7,2 C 3,9 C 93 % 1016,6 hPa 0,0 l/m 0 min 0 min 153 W/m 3,2 km/h (1 Bft) 100,00 %
07.12.2022 12:54 5,9 C 7,8 C 3,9 C 93 % 1016,6 hPa 0,0 l/m 0 min 0 min 153 W/m 16,1 km/h (3 Bft) 100,00 %
07.12.2022 12:56 6,0 C 7,8 C 3,9 C 93 % 1016,6 hPa 0,0 l/m 0 min 0 min 135 W/m 6,4 km/h (2 Bft) 100,00 %
07.12.2022 12:58 6,1 C 7,2 C 3,9 C 93 % 1016,5 hPa 0,0 l/m 0 min 0 min 121 W/m 6,4 km/h (2 Bft) 100,00 %
07.12.2022 13:00 6,1 C 6,7 C 3,9 C 93 % 1016,5 hPa 0,0 l/m 0 min 0 min 119 W/m 6,4 km/h (2 Bft) 100,00 %
07.12.2022 13:02 6,1 C 6,7 C 3,9 C 93 % 1016,5 hPa 0,0 l/m 0 min 0 min 126 W/m 6,4 km/h (2 Bft) 97,83 %
07.12.2022 13:04 6,1 C 7,2 C 3,9 C 92 % 1016,5 hPa 0,0 l/m 2 min 0 min 189 W/m 12,9 km/h (3 Bft) 97,87 %
07.12.2022 13:06 6,0 C 7,2 C 3,9 C 92 % 1016,5 hPa 0,0 l/m 2 min 0 min 180 W/m 9,7 km/h (2 Bft) 100,00 %
07.12.2022 13:08 6,1 C 7,2 C 3,9 C 92 % 1016,5 hPa 0,0 l/m 2 min 0 min 168 W/m 6,4 km/h (2 Bft) 100,00 %
07.12.2022 13:10 6,1 C 7,2 C 3,9 C 92 % 1016,5 hPa 0,0 l/m 2 min 0 min 167 W/m 6,4 km/h (2 Bft) 100,00 %
07.12.2022 13:12 6,1 C 7,2 C 3,9 C 92 % 1016,4 hPa 0,0 l/m 2 min 0 min 188 W/m 6,4 km/h (2 Bft) 95,65 %
07.12.2022 13:14 6,1 C 7,2 C 3,9 C 92 % 1016,5 hPa 0,0 l/m 2 min 0 min 161 W/m 9,7 km/h (2 Bft) 97,87 %
07.12.2022 13:16 6,1 C 7,2 C 3,9 C 92 % 1016,5 hPa 0,0 l/m 2 min 0 min 182 W/m 12,9 km/h (3 Bft) 100,00 %
07.12.2022 13:18 6,1 C 7,2 C 3,9 C 92 % 1016,4 hPa 0,0 l/m 2 min 0 min 166 W/m 9,7 km/h (2 Bft) 95,74 %
07.12.2022 13:20 6,1 C 6,7 C 3,9 C 92 % 1016,5 hPa 0,0 l/m 0 min 0 min 146 W/m 16,1 km/h (3 Bft) 97,87 %
07.12.2022 13:22 6,1 C 6,7 C 3,9 C 92 % 1016,5 hPa 0,0 l/m 0 min 0 min 143 W/m 6,4 km/h (2 Bft) 97,87 %
07.12.2022 13:24 6,1 C 6,7 C 3,9 C 92 % 1016,4 hPa 0,0 l/m 0 min 0 min 134 W/m 12,9 km/h (3 Bft) 97,83 %
07.12.2022 13:26 6,1 C 6,1 C 3,9 C 91 % 1016,4 hPa 0,0 l/m 0 min 0 min 124 W/m 12,9 km/h (3 Bft) 95,74 %
07.12.2022 13:28 6,1 C 6,1 C 3,9 C 91 % 1016,4 hPa 0,0 l/m 0 min 0 min 116 W/m 9,7 km/h (2 Bft) 97,87 %
07.12.2022 13:30 6,1 C 6,1 C 3,9 C 91 % 1016,4 hPa 0,0 l/m 0 min 0 min 85 W/m 9,7 km/h (2 Bft) 97,87 %
07.12.2022 13:32 6,1 C 5,6 C 3,9 C 91 % 1016,4 hPa 0,0 l/m 0 min 0 min 76 W/m 9,7 km/h (2 Bft) 97,87 %
07.12.2022 13:34 6,1 C 5,6 C 3,9 C 91 % 1016,4 hPa 0,0 l/m 0 min 0 min 78 W/m 6,4 km/h (2 Bft) 97,87 %
07.12.2022 13:36 6,1 C 5,6 C 3,9 C 91 % 1016,3 hPa 0,0 l/m 0 min 0 min 80 W/m 9,7 km/h (2 Bft) 97,83 %
07.12.2022 13:38 6,1 C 5,6 C 3,9 C 91 % 1016,3 hPa 0,0 l/m 0 min 0 min 81 W/m 12,9 km/h (3 Bft) 97,87 %
07.12.2022 13:40 6,0 C 5,6 C 3,9 C 91 % 1016,2 hPa 0,0 l/m 0 min 0 min 72 W/m 6,4 km/h (2 Bft) 97,87 %
07.12.2022 13:42 6,0 C 5,6 C 3,9 C 91 % 1016,2 hPa 0,0 l/m 0 min 0 min 66 W/m 12,9 km/h (3 Bft) 97,87 %
07.12.2022 13:44 6,0 C 5,6 C 3,3 C 91 % 1016,2 hPa 0,0 l/m 0 min 0 min 67 W/m 9,7 km/h (2 Bft) 97,87 %
07.12.2022 13:46 6,0 C 5,6 C 3,3 C 91 % 1016,2 hPa 0,0 l/m 0 min 0 min 68 W/m 6,4 km/h (2 Bft) 97,87 %
07.12.2022 13:48 5,9 C 5,6 C 3,3 C 91 % 1016,1 hPa 0,0 l/m 0 min 0 min 73 W/m 6,4 km/h (2 Bft) 97,87 %
07.12.2022 13:50 5,9 C 5,6 C 3,3 C 91 % 1016,1 hPa 0,0 l/m 0 min 0 min 76 W/m 6,4 km/h (2 Bft) 97,83 %
07.12.2022 13:52 5,9 C 5,6 C 3,3 C 91 % 1016,1 hPa 0,0 l/m 0 min 0 min 72 W/m 9,7 km/h (2 Bft) 95,74 %
07.12.2022 13:54 5,9 C 5,6 C 3,3 C 91 % 1016,1 hPa 0,0 l/m 0 min 0 min 66 W/m 12,9 km/h (3 Bft) 97,87 %
07.12.2022 13:56 5,9 C 5,6 C 3,3 C 91 % 1016,1 hPa 0,0 l/m 0 min 0 min 63 W/m 9,7 km/h (2 Bft) 97,87 %
07.12.2022 13:58 5,9 C 5,6 C 3,3 C 91 % 1016,1 hPa 0,0 l/m 0 min 0 min 68 W/m 9,7 km/h (2 Bft) 100,00 %
07.12.2022 14:00 5,9 C 5,6 C 3,3 C 91 % 1016,1 hPa 0,0 l/m 0 min 0 min 79 W/m 6,4 km/h (2 Bft) 97,83 %
07.12.2022 14:02 5,9 C 5,6 C 3,3 C 90 % 1016,1 hPa 0,0 l/m 0 min 0 min 86 W/m 9,7 km/h (2 Bft) 97,87 %
07.12.2022 14:04 5,9 C 5,6 C 3,3 C 90 % 1016,1 hPa 0,0 l/m 0 min 0 min 89 W/m 16,1 km/h (3 Bft) 91,49 %
07.12.2022 14:06 5,9 C 5,6 C 3,3 C 90 % 1016,0 hPa 0,0 l/m 0 min 0 min 85 W/m 9,7 km/h (2 Bft) 97,87 %
07.12.2022 14:08 5,9 C 5,6 C 3,3 C 90 % 1016,1 hPa 0,0 l/m 0 min 0 min 74 W/m 12,9 km/h (3 Bft) 95,74 %
07.12.2022 14:10 5,9 C 5,6 C 3,3 C 90 % 1016,0 hPa 0,0 l/m 0 min 0 min 69 W/m 12,9 km/h (3 Bft) 97,87 %
07.12.2022 14:12 5,9 C 5,6 C 3,3 C 90 % 1016,0 hPa 0,0 l/m 0 min 0 min 71 W/m 9,7 km/h (2 Bft) 97,83 %
07.12.2022 14:14 5,8 C 5,6 C 3,3 C 90 % 1015,9 hPa 0,0 l/m 0 min 0 min 70 W/m 6,4 km/h (2 Bft) 97,87 %
07.12.2022 14:16 5,8 C 5,6 C 3,3 C 90 % 1015,9 hPa 0,0 l/m 0 min 0 min 66 W/m 9,7 km/h (2 Bft) 93,62 %
07.12.2022 14:18 5,8 C 5,6 C 3,3 C 90 % 1015,9 hPa 0,0 l/m 0 min 0 min 61 W/m 12,9 km/h (3 Bft) 97,87 %
07.12.2022 14:20 5,8 C 5,6 C 3,3 C 90 % 1015,9 hPa 0,0 l/m 0 min 0 min 59 W/m 6,4 km/h (2 Bft) 97,87 %
07.12.2022 14:22 5,8 C 5,6 C 3,3 C 89 % 1015,8 hPa 0,0 l/m 0 min 0 min 58 W/m 9,7 km/h (2 Bft) 97,87 %
07.12.2022 14:24 5,8 C 5,6 C 3,3 C 89 % 1015,9 hPa 0,0 l/m 0 min 0 min 51 W/m 6,4 km/h (2 Bft) 97,83 %
07.12.2022 14:26 5,8 C 5,6 C 3,3 C 90 % 1015,9 hPa 0,0 l/m 0 min 0 min 56 W/m 6,4 km/h (2 Bft) 97,87 %
07.12.2022 14:28 5,8 C 5,6 C 3,3 C 90 % 1015,8 hPa 0,0 l/m 0 min 0 min 60 W/m 3,2 km/h (1 Bft) 95,74 %
07.12.2022 14:30 5,8 C 5,6 C 3,3 C 90 % 1015,8 hPa 0,0 l/m 0 min 0 min 58 W/m 3,2 km/h (1 Bft) 95,74 %
07.12.2022 14:32 5,8 C 5,6 C 3,3 C 90 % 1015,8 hPa 0,0 l/m 0 min 0 min 50 W/m 0,0 km/h (0 Bft) 95,74 %
07.12.2022 14:34 5,7 C 5,6 C 2,8 C 90 % 1015,7 hPa 0,0 l/m 0 min 0 min 44 W/m 0,0 km/h (0 Bft) 93,62 %
07.12.2022 14:36 5,7 C 5,6 C 2,8 C 90 % 1015,7 hPa 0,0 l/m 0 min 0 min 40 W/m 0,0 km/h (0 Bft) 93,48 %
07.12.2022 14:38 5,7 C 5,0 C 2,8 C 90 % 1015,8 hPa 0,0 l/m 0 min 0 min 45 W/m 0,0 km/h (0 Bft) 95,74 %
07.12.2022 14:40 5,7 C 5,6 C 2,8 C 90 % 1015,7 hPa 0,0 l/m 0 min 0 min 57 W/m 0,0 km/h (0 Bft) 95,74 %
07.12.2022 14:42 5,7 C 5,6 C 2,8 C 90 % 1015,7 hPa 0,0 l/m 0 min 0 min 80 W/m 0,0 km/h (0 Bft) 93,62 %
07.12.2022 14:44 5,7 C 5,6 C 2,8 C 90 % 1015,7 hPa 0,0 l/m 0 min 0 min 94 W/m 0,0 km/h (0 Bft) 97,87 %
07.12.2022 14:46 5,7 C 5,6 C 2,8 C 90 % 1015,7 hPa 0,0 l/m 2 min 0 min 98 W/m 3,2 km/h (1 Bft) 97,56 %
07.12.2022 14:48 5,7 C 6,1 C 3,3 C 90 % 1015,7 hPa 0,0 l/m 2 min 0 min 99 W/m 6,4 km/h (2 Bft) 97,87 %
07.12.2022 14:50 5,7 C 6,1 C 3,3 C 90 % 1015,6 hPa 0,0 l/m 0 min 0 min 93 W/m 3,2 km/h (1 Bft) 97,83 %
07.12.2022 14:52 5,8 C 6,1 C 3,3 C 90 % 1015,6 hPa 0,0 l/m 0 min 0 min 84 W/m 3,2 km/h (1 Bft) 95,74 %
07.12.2022 14:54 5,8 C 6,1 C 3,3 C 90 % 1015,6 hPa 0,0 l/m 0 min 0 min 73 W/m 0,0 km/h (0 Bft) 97,87 %
07.12.2022 14:56 5,8 C 6,1 C 3,3 C 90 % 1015,6 hPa 0,0 l/m 0 min 0 min 67 W/m 6,4 km/h (2 Bft) 95,74 %
07.12.2022 14:58 5,8 C 5,6 C 3,3 C 91 % 1015,6 hPa 0,0 l/m 0 min 0 min 61 W/m 6,4 km/h (2 Bft) 97,87 %
07.12.2022 15:00 5,8 C 5,6 C 3,3 C 91 % 1015,5 hPa 0,0 l/m 0 min 0 min 61 W/m 3,2 km/h (1 Bft) 95,74 %
07.12.2022 15:02 5,9 C 5,6 C 3,3 C 91 % 1015,6 hPa 0,0 l/m 0 min 0 min 64 W/m 3,2 km/h (1 Bft) 95,65 %
07.12.2022 15:04 5,9 C 5,6 C 3,3 C 91 % 1015,5 hPa 0,0 l/m 0 min 0 min 66 W/m 3,2 km/h (1 Bft) 100,00 %
07.12.2022 15:06 5,9 C 5,6 C 3,3 C 91 % 1015,5 hPa 0,0 l/m 0 min 0 min 68 W/m 3,2 km/h (1 Bft) 98,11 %
07.12.2022 15:08 5,9 C 5,6 C 3,3 C 90 % 1015,5 hPa 0,0 l/m 0 min 0 min 69 W/m 3,2 km/h (1 Bft) 93,75 %
07.12.2022 15:10 5,9 C 5,6 C 3,3 C 90 % 1015,5 hPa 0,0 l/m 0 min 0 min 69 W/m 3,2 km/h (1 Bft) 97,87 %
07.12.2022 15:12 5,9 C 5,6 C 3,3 C 90 % 1015,4 hPa 0,0 l/m 0 min 0 min 64 W/m 3,2 km/h (1 Bft) 97,83 %
07.12.2022 15:14 5,9 C 5,6 C 3,3 C 90 % 1015,4 hPa 0,0 l/m 0 min 0 min 63 W/m 0,0 km/h (0 Bft) 97,87 %
07.12.2022 15:16 5,8 C 5,6 C 3,3 C 90 % 1015,4 hPa 0,0 l/m 0 min 0 min 64 W/m 3,2 km/h (1 Bft) 95,74 %
07.12.2022 15:18 5,9 C 5,6 C 3,3 C 90 % 1015,4 hPa 0,0 l/m 0 min 0 min 55 W/m 3,2 km/h (1 Bft) 100,00 %
07.12.2022 15:20 5,9 C 5,6 C 3,3 C 90 % 1015,4 hPa 0,0 l/m 0 min 0 min 57 W/m 3,2 km/h (1 Bft) 100,00 %
07.12.2022 15:22 5,9 C 5,6 C 3,3 C 90 % 1015,3 hPa 0,0 l/m 0 min 0 min 54 W/m 3,2 km/h (1 Bft) 100,00 %
07.12.2022 15:24 5,9 C 5,6 C 3,3 C 90 % 1015,3 hPa 0,0 l/m 0 min 0 min 50 W/m 0,0 km/h (0 Bft) 100,00 %
07.12.2022 15:26 5,9 C 5,6 C 3,3 C 90 % 1015,3 hPa 0,0 l/m 0 min 0 min 52 W/m 9,7 km/h (2 Bft) 95,74 %
07.12.2022 15:28 5,9 C 5,6 C 3,3 C 90 % 1015,3 hPa 0,0 l/m 0 min 0 min 57 W/m 3,2 km/h (1 Bft) 95,74 %
07.12.2022 15:30 5,9 C 5,6 C 3,3 C 90 % 1015,3 hPa 0,0 l/m 2 min 0 min 58 W/m 3,2 km/h (1 Bft) 95,74 %
07.12.2022 15:32 5,9 C 5,6 C 3,3 C 90 % 1015,3 hPa 0,0 l/m 2 min 0 min 57 W/m 3,2 km/h (1 Bft) 97,87 %
07.12.2022 15:34 5,9 C 5,6 C 3,3 C 90 % 1015,3 hPa 0,0 l/m 2 min 0 min 58 W/m 3,2 km/h (1 Bft) 95,74 %
07.12.2022 15:36 5,9 C 5,6 C 3,3 C 90 % 1015,3 hPa 0,0 l/m 2 min 0 min 56 W/m 3,2 km/h (1 Bft) 95,65 %
07.12.2022 15:38 5,9 C 5,6 C 3,3 C 90 % 1015,2 hPa 0,0 l/m 2 min 0 min 54 W/m 6,4 km/h (2 Bft) 97,87 %
07.12.2022 15:40 6,0 C 6,1 C 3,3 C 90 % 1015,2 hPa 0,0 l/m 2 min 0 min 54 W/m 3,2 km/h (1 Bft) 95,74 %
07.12.2022 15:42 6,0 C 6,1 C 3,3 C 90 % 1015,2 hPa 0,0 l/m 2 min 0 min 49 W/m 3,2 km/h (1 Bft) 97,87 %
07.12.2022 15:44 6,0 C 6,1 C 3,3 C 90 % 1015,1 hPa 0,0 l/m 2 min 0 min 42 W/m 6,4 km/h (2 Bft) 97,87 %
07.12.2022 15:46 6,1 C 5,6 C 3,3 C 90 % 1015,1 hPa 0,0 l/m 0 min 0 min 35 W/m 6,4 km/h (2 Bft) 95,65 %
07.12.2022 15:48 6,0 C 5,6 C 3,3 C 90 % 1015,1 hPa 0,0 l/m 0 min 0 min 28 W/m 6,4 km/h (2 Bft) 97,87 %
07.12.2022 15:50 6,0 C 5,6 C 3,3 C 90 % 1015,1 hPa 0,0 l/m 0 min 0 min 25 W/m 6,4 km/h (2 Bft) 97,87 %
07.12.2022 15:52 6,0 C 5,6 C 3,3 C 89 % 1015,1 hPa 0,0 l/m 0 min 0 min 25 W/m 3,2 km/h (1 Bft) 95,74 %
07.12.2022 15:54 6,0 C 5,6 C 3,3 C 90 % 1015,1 hPa 0,0 l/m 0 min 0 min 23 W/m 6,4 km/h (2 Bft) 97,87 %
07.12.2022 15:56 6,0 C 5,6 C 3,3 C 89 % 1015,0 hPa 0,0 l/m 0 min 0 min 22 W/m 6,4 km/h (2 Bft) 93,62 %
07.12.2022 15:58 6,0 C 5,6 C 3,3 C 90 % 1015,0 hPa 0,0 l/m 0 min 0 min 22 W/m 6,4 km/h (2 Bft) 97,87 %
07.12.2022 16:00 6,0 C 5,6 C 3,3 C 90 % 1015,0 hPa 0,0 l/m 2 min 0 min 28 W/m 3,2 km/h (1 Bft) 95,65 %
07.12.2022 16:02 6,0 C 5,6 C 2,8 C 90 % 1014,9 hPa 0,0 l/m 2 min 0 min 33 W/m 3,2 km/h (1 Bft) 97,87 %
07.12.2022 16:04 6,0 C 5,6 C 2,8 C 90 % 1014,9 hPa 0,0 l/m 2 min 0 min 29 W/m 9,7 km/h (2 Bft) 100,00 %
07.12.2022 16:06 5,9 C 5,6 C 2,8 C 90 % 1015,0 hPa 0,0 l/m 2 min 0 min 23 W/m 6,4 km/h (2 Bft) 100,00 %
07.12.2022 16:08 5,9 C 5,6 C 2,8 C 90 % 1015,0 hPa 0,0 l/m 0 min 0 min 19 W/m 6,4 km/h (2 Bft) 100,00 %
07.12.2022 16:10 5,9 C 5,0 C 2,8 C 90 % 1014,9 hPa 0,0 l/m 0 min 0 min 17 W/m 3,2 km/h (1 Bft) 93,62 %
07.12.2022 16:12 5,8 C 5,0 C 2,8 C 89 % 1015,0 hPa 0,0 l/m 0 min 0 min 13 W/m 6,4 km/h (2 Bft) 100,00 %
07.12.2022 16:14 5,8 C 5,0 C 2,8 C 89 % 1015,0 hPa 0,0 l/m 0 min 0 min 12 W/m 6,4 km/h (2 Bft) 97,87 %
07.12.2022 16:16 5,8 C 5,0 C 2,8 C 89 % 1014,9 hPa 0,0 l/m 0 min 0 min 11 W/m 6,4 km/h (2 Bft) 100,00 %
07.12.2022 16:18 5,7 C 5,0 C 2,8 C 89 % 1014,9 hPa 0,0 l/m 0 min 0 min 10 W/m 6,4 km/h (2 Bft) 100,00 %
07.12.2022 16:20 5,7 C 5,0 C 2,8 C 90 % 1014,9 hPa 0,0 l/m 0 min 0 min 8 W/m 12,9 km/h (3 Bft) 100,00 %
07.12.2022 16:22 5,7 C 5,0 C 2,8 C 90 % 1014,9 hPa 0,0 l/m 0 min 0 min 7 W/m 6,4 km/h (2 Bft) 97,83 %
07.12.2022 16:24 5,7 C 5,0 C 2,8 C 90 % 1014,9 hPa 0,0 l/m 0 min 0 min 6 W/m 3,2 km/h (1 Bft) 100,00 %
07.12.2022 16:26 5,6 C 5,0 C 2,2 C 90 % 1014,9 hPa 0,0 l/m 0 min 0 min 5 W/m 3,2 km/h (1 Bft) 100,00 %
07.12.2022 16:28 5,6 C 5,0 C 2,2 C 90 % 1015,0 hPa 0,0 l/m 0 min 0 min 5 W/m 3,2 km/h (1 Bft) 95,74 %
07.12.2022 16:30 5,5 C 4,4 C 2,2 C 90 % 1014,9 hPa 0,0 l/m 0 min 0 min 5 W/m 6,4 km/h (2 Bft) 95,74 %
07.12.2022 16:32 5,5 C 4,4 C 2,2 C 90 % 1014,9 hPa 0,0 l/m 0 min 0 min 5 W/m 6,4 km/h (2 Bft) 95,74 %
07.12.2022 16:34 5,4 C 4,4 C 2,2 C 90 % 1014,9 hPa 0,0 l/m 0 min 0 min 4 W/m 3,2 km/h (1 Bft) 97,83 %
07.12.2022 16:36 5,4 C 4,4 C 2,2 C 90 % 1014,9 hPa 0,0 l/m 0 min 0 min 0 W/m 12,9 km/h (3 Bft) 97,87 %
07.12.2022 16:38 5,3 C 4,4 C 2,2 C 90 % 1014,9 hPa 0,0 l/m 0 min 0 min 0 W/m 3,2 km/h (1 Bft) 95,74 %
07.12.2022 16:40 5,3 C 4,4 C 2,2 C 90 % 1015,0 hPa 0,0 l/m 0 min 0 min 0 W/m 3,2 km/h (1 Bft) 95,74 %
07.12.2022 16:42 5,3 C 4,4 C 2,2 C 90 % 1014,9 hPa 0,0 l/m 0 min 0 min 0 W/m 6,4 km/h (2 Bft) 97,87 %
07.12.2022 16:44 5,3 C 4,4 C 2,2 C 90 % 1014,9 hPa 0,0 l/m 0 min 0 min 0 W/m 3,2 km/h (1 Bft) 95,74 %
07.12.2022 16:46 5,2 C 4,4 C 2,2 C 91 % 1014,9 hPa 0,0 l/m 0 min 0 min 0 W/m 6,4 km/h (2 Bft) 97,83 %
07.12.2022 16:48 5,2 C 4,4 C 2,2 C 91 % 1014,9 hPa 0,0 l/m 0 min 0 min 0 W/m 3,2 km/h (1 Bft) 95,74 %
07.12.2022 16:50 5,2 C 4,4 C 2,2 C 91 % 1015,0 hPa 0,0 l/m 0 min 0 min 0 W/m 3,2 km/h (1 Bft) 97,87 %
07.12.2022 16:52 5,2 C 4,4 C 2,2 C 91 % 1014,9 hPa 0,0 l/m 0 min 0 min 0 W/m 3,2 km/h (1 Bft) 97,87 %
07.12.2022 16:54 5,1 C 4,4 C 2,2 C 91 % 1014,9 hPa 0,0 l/m 0 min 0 min 0 W/m 3,2 km/h (1 Bft) 97,87 %
07.12.2022 16:56 5,1 C 4,4 C 2,2 C 91 % 1014,9 hPa 0,0 l/m 0 min 0 min 0 W/m 6,4 km/h (2 Bft) 97,87 %
07.12.2022 16:58 5,1 C 4,4 C 2,2 C 91 % 1014,9 hPa 0,0 l/m 0 min 0 min 0 W/m 3,2 km/h (1 Bft) 97,83 %
07.12.2022 17:00 5,1 C 4,4 C 2,2 C 91 % 1014,9 hPa 0,0 l/m 0 min 0 min 0 W/m 3,2 km/h (1 Bft) 97,87 %
07.12.2022 17:02 5,1 C 4,4 C 2,2 C 92 % 1014,9 hPa 0,0 l/m 0 min 0 min 0 W/m 6,4 km/h (2 Bft) 97,87 %
07.12.2022 17:04 5,1 C 4,4 C 2,2 C 92 % 1014,9 hPa 0,0 l/m 0 min 0 min 0 W/m 6,4 km/h (2 Bft) 97,87 %
07.12.2022 17:06 5,1 C 4,4 C 2,2 C 92 % 1014,8 hPa 0,0 l/m 0 min 0 min 0 W/m 3,2 km/h (1 Bft) 100,00 %
07.12.2022 17:08 5,1 C 4,4 C 2,2 C 92 % 1014,8 hPa 0,0 l/m 0 min 0 min 0 W/m 3,2 km/h (1 Bft) 95,74 %
07.12.2022 17:10 5,1 C 4,4 C 2,2 C 92 % 1014,8 hPa 0,0 l/m 0 min 0 min 0 W/m 3,2 km/h (1 Bft) 100,00 %
07.12.2022 17:12 5,1 C 4,4 C 2,2 C 92 % 1014,8 hPa 0,0 l/m 0 min 0 min 0 W/m 6,4 km/h (2 Bft) 100,00 %
07.12.2022 17:14 5,1 C 4,4 C 2,2 C 92 % 1014,8 hPa 0,0 l/m 0 min 0 min 0 W/m 3,2 km/h (1 Bft) 100,00 %
07.12.2022 17:16 5,1 C 4,4 C 2,2 C 92 % 1014,8 hPa 0,0 l/m 0 min 0 min 0 W/m 3,2 km/h (1 Bft) 95,74 %
07.12.2022 17:18 5,1 C 4,4 C 2,2 C 92 % 1014,8 hPa 0,0 l/m 0 min 0 min 0 W/m 3,2 km/h (1 Bft) 95,74 %
07.12.2022 17:20 5,1 C 4,4 C 2,2 C 92 % 1014,8 hPa 0,0 l/m 0 min 0 min 0 W/m 6,4 km/h (2 Bft) 100,00 %
07.12.2022 17:22 5,1 C 4,4 C 2,2 C 92 % 1014,8 hPa 0,0 l/m 0 min 0 min 0 W/m 3,2 km/h (1 Bft) 95,65 %
07.12.2022 17:24 5,1 C 4,4 C 2,2 C 92 % 1014,8 hPa 0,0 l/m 0 min 0 min 0 W/m 3,2 km/h (1 Bft) 95,74 %
07.12.2022 17:26 5,1 C 4,4 C 2,2 C 93 % 1014,8 hPa 0,0 l/m 0 min 0 min 0 W/m 6,4 km/h (2 Bft) 95,74 %
07.12.2022 17:28 5,1 C 4,4 C 2,2 C 93 % 1014,8 hPa 0,0 l/m 0 min 0 min 0 W/m 6,4 km/h (2 Bft) 93,62 %
07.12.2022 17:30 5,1 C 4,4 C 2,2 C 93 % 1014,8 hPa 0,0 l/m 0 min 0 min 0 W/m 3,2 km/h (1 Bft) 95,74 %
07.12.2022 17:32 5,1 C 4,4 C 2,2 C 93 % 1014,8 hPa 0,0 l/m 0 min 0 min 0 W/m 6,4 km/h (2 Bft) 93,62 %
07.12.2022 17:34 5,1 C 4,4 C 2,2 C 93 % 1014,7 hPa 0,0 l/m 0 min 0 min 0 W/m 6,4 km/h (2 Bft) 91,30 %
07.12.2022 17:36 5,0 C 4,4 C 2,2 C 93 % 1014,7 hPa 0,0 l/m 0 min 0 min 0 W/m 6,4 km/h (2 Bft) 95,74 %
07.12.2022 17:38 5,0 C 4,4 C 2,2 C 93 % 1014,8 hPa 0,0 l/m 0 min 0 min 0 W/m 6,4 km/h (2 Bft) 95,74 %
07.12.2022 17:40 5,0 C 4,4 C 2,2 C 93 % 1014,8 hPa 0,0 l/m 0 min 0 min 0 W/m 6,4 km/h (2 Bft) 95,74 %
07.12.2022 17:42 5,0 C 4,4 C 2,2 C 93 % 1014,8 hPa 0,0 l/m 0 min 0 min 0 W/m 6,4 km/h (2 Bft) 93,62 %
07.12.2022 17:44 5,0 C 4,4 C 2,2 C 93 % 1014,8 hPa 0,0 l/m 0 min 0 min 0 W/m 3,2 km/h (1 Bft) 95,74 %
07.12.2022 17:46 5,0 C 4,4 C 2,2 C 93 % 1014,8 hPa 0,0 l/m 0 min 0 min 0 W/m 6,4 km/h (2 Bft) 95,65 %
07.12.2022 17:48 5,0 C 4,4 C 2,2 C 93 % 1014,7 hPa 0,0 l/m 0 min 0 min 0 W/m 6,4 km/h (2 Bft) 95,74 %
07.12.2022 17:50 5,0 C 4,4 C 2,2 C 93 % 1014,7 hPa 0,0 l/m 0 min 0 min 0 W/m 3,2 km/h (1 Bft) 92,00 %
07.12.2022 17:52 5,0 C 4,4 C 2,2 C 93 % 1014,6 hPa 0,0 l/m 0 min 0 min 0 W/m 6,4 km/h (2 Bft) 95,74 %
07.12.2022 17:54 5,0 C 4,4 C 2,2 C 93 % 1014,6 hPa 0,0 l/m 0 min 0 min 0 W/m 3,2 km/h (1 Bft) 97,87 %
07.12.2022 17:56 4,9 C 4,4 C 2,2 C 93 % 1014,6 hPa 0,0 l/m 0 min 0 min 0 W/m 9,7 km/h (2 Bft) 97,83 %
07.12.2022 17:58 5,0 C 4,4 C 2,2 C 93 % 1014,6 hPa 0,0 l/m 0 min 0 min 0 W/m 6,4 km/h (2 Bft) 97,44 %
07.12.2022 18:00 4,9 C 4,4 C 2,2 C 93 % 1014,6 hPa 0,0 l/m 0 min 0 min 0 W/m 12,9 km/h (3 Bft) 97,83 %
07.12.2022 18:02 4,9 C 4,4 C 2,2 C 93 % 1014,6 hPa 0,0 l/m 0 min 0 min 0 W/m 12,9 km/h (3 Bft) 97,87 %
07.12.2022 18:04 5,0 C 4,4 C 2,2 C 93 % 1014,6 hPa 0,0 l/m 0 min 0 min 0 W/m 6,4 km/h (2 Bft) 95,74 %
07.12.2022 18:08 4,9 C 4,4 C 2,2 C 94 % 1014,6 hPa 0,0 l/m 0 min 0 min 0 W/m 9,7 km/h (2 Bft) 96,84 %
07.12.2022 18:10 4,9 C 4,4 C 2,2 C 94 % 1014,6 hPa 0,0 l/m 0 min 0 min 0 W/m 9,7 km/h (2 Bft) 95,65 %
07.12.2022 18:12 4,9 C 4,4 C 2,2 C 94 % 1014,5 hPa 0,0 l/m 0 min 0 min 0 W/m 9,7 km/h (2 Bft) 95,74 %
07.12.2022 18:14 4,9 C 4,4 C 2,2 C 94 % 1014,5 hPa 0,0 l/m 0 min 0 min 0 W/m 9,7 km/h (2 Bft) 100,00 %
07.12.2022 18:16 4,9 C 4,4 C 2,2 C 94 % 1014,5 hPa 0,0 l/m 0 min 0 min 0 W/m 6,4 km/h (2 Bft) 95,74 %
07.12.2022 18:18 4,8 C 3,9 C 1,7 C 94 % 1014,5 hPa 0,0 l/m 0 min 0 min 0 W/m 9,7 km/h (2 Bft) 95,74 %
07.12.2022 18:20 4,8 C 3,9 C 1,7 C 94 % 1014,5 hPa 0,0 l/m 0 min 0 min 0 W/m 6,4 km/h (2 Bft) 97,87 %
07.12.2022 18:22 4,7 C 3,9 C 1,7 C 93 % 1014,4 hPa 0,0 l/m 0 min 0 min 0 W/m 6,4 km/h (2 Bft) 97,87 %
07.12.2022 18:24 4,7 C 3,9 C 1,7 C 93 % 1014,5 hPa 0,0 l/m 0 min 0 min 0 W/m 6,4 km/h (2 Bft) 100,00 %
07.12.2022 18:26 4,6 C 3,9 C 1,7 C 93 % 1014,4 hPa 0,0 l/m 0 min 0 min 0 W/m 3,2 km/h (1 Bft) 97,87 %
07.12.2022 18:28 4,6 C 3,9 C 1,7 C 93 % 1014,4 hPa 0,0 l/m 0 min 0 min 0 W/m 3,2 km/h (1 Bft) 100,00 %
07.12.2022 18:30 4,6 C 3,9 C 1,7 C 93 % 1014,4 hPa 0,0 l/m 0 min 0 min 0 W/m 3,2 km/h (1 Bft) 100,00 %
07.12.2022 18:32 4,6 C 3,9 C 1,7 C 93 % 1014,3 hPa 0,0 l/m 0 min 0 min 0 W/m 3,2 km/h (1 Bft) 100,00 %
07.12.2022 18:34 4,6 C 3,9 C 1,7 C 93 % 1014,3 hPa 0,0 l/m 0 min 0 min 0 W/m 3,2 km/h (1 Bft) 97,87 %
07.12.2022 18:36 4,6 C 3,9 C 1,7 C 94 % 1014,3 hPa 0,0 l/m 0 min 0 min 0 W/m 3,2 km/h (1 Bft) 100,00 %
07.12.2022 18:38 4,5 C 3,9 C 1,7 C 94 % 1014,3 hPa 0,0 l/m 0 min 0 min 0 W/m 0,0 km/h (0 Bft) 100,00 %
07.12.2022 18:40 4,5 C 3,9 C 1,7 C 94 % 1014,3 hPa 0,0 l/m 0 min 0 min 0 W/m 0,0 km/h (0 Bft) 97,87 %
07.12.2022 18:42 4,5 C 3,9 C 1,7 C 94 % 1014,2 hPa 0,0 l/m 0 min 0 min 0 W/m 0,0 km/h (0 Bft) 100,00 %
07.12.2022 18:44 4,5 C 3,9 C 1,7 C 94 % 1014,3 hPa 0,0 l/m 0 min 0 min 0 W/m 0,0 km/h (0 Bft) 100,00 %
07.12.2022 18:46 4,5 C 3,9 C 1,7 C 94 % 1014,3 hPa 0,0 l/m 0 min 0 min 0 W/m 0,0 km/h (0 Bft) 100,00 %
07.12.2022 18:48 4,6 C 3,9 C 1,7 C 94 % 1014,3 hPa 0,0 l/m 0 min 0 min 0 W/m 0,0 km/h (0 Bft) 100,00 %
07.12.2022 18:50 4,6 C 4,4 C 1,7 C 94 % 1014,3 hPa 0,0 l/m 0 min 0 min 0 W/m 0,0 km/h (0 Bft) 97,87 %
07.12.2022 18:52 4,6 C 4,4 C 1,7 C 94 % 1014,3 hPa 0,0 l/m 0 min 0 min 0 W/m 0,0 km/h (0 Bft) 95,74 %
07.12.2022 18:54 4,7 C 4,4 C 1,7 C 94 % 1014,2 hPa 0,0 l/m 0 min 0 min 0 W/m 0,0 km/h (0 Bft) 97,87 %
07.12.2022 18:56 4,7 C 4,4 C 1,7 C 94 % 1014,2 hPa 0,0 l/m 0 min 0 min 0 W/m 0,0 km/h (0 Bft) 97,87 %
07.12.2022 18:58 4,7 C 4,4 C 1,7 C 94 % 1014,2 hPa 0,0 l/m 0 min 0 min 0 W/m 9,7 km/h (2 Bft) 97,83 %
07.12.2022 19:00 4,7 C 4,4 C 1,7 C 94 % 1014,2 hPa 0,0 l/m 0 min 0 min 0 W/m 3,2 km/h (1 Bft) 97,87 %
07.12.2022 19:02 4,8 C 4,4 C 1,7 C 94 % 1014,2 hPa 0,0 l/m 0 min 0 min 0 W/m 6,4 km/h (2 Bft) 95,74 %
07.12.2022 19:04 4,8 C 4,4 C 1,7 C 94 % 1014,1 hPa 0,0 l/m 0 min 0 min 0 W/m 3,2 km/h (1 Bft) 97,87 %
07.12.2022 19:06 4,8 C 4,4 C 1,7 C 94 % 1014,1 hPa 0,0 l/m 0 min 0 min 0 W/m 3,2 km/h (1 Bft) 94,83 %
07.12.2022 19:08 4,8 C 4,4 C 1,7 C 94 % 1014,0 hPa 0,0 l/m 0 min 0 min 0 W/m 3,2 km/h (1 Bft) 97,22 %
07.12.2022 19:10 4,8 C 4,4 C 1,7 C 94 % 1014,0 hPa 0,0 l/m 0 min 0 min 0 W/m 6,4 km/h (2 Bft) 97,83 %
07.12.2022 19:12 4,9 C 4,4 C 1,7 C 94 % 1014,0 hPa 0,0 l/m 0 min 0 min 0 W/m 3,2 km/h (1 Bft) 97,87 %
07.12.2022 19:14 4,9 C 4,4 C 1,7 C 94 % 1014,0 hPa 0,0 l/m 0 min 0 min 0 W/m 3,2 km/h (1 Bft) 95,74 %
07.12.2022 19:16 4,9 C 4,4 C 1,7 C 94 % 1014,0 hPa 0,0 l/m 0 min 0 min 0 W/m 6,4 km/h (2 Bft) 93,62 %
07.12.2022 19:18 4,9 C 4,4 C 1,7 C 94 % 1014,0 hPa 0,0 l/m 0 min 0 min 0 W/m 6,4 km/h (2 Bft) 93,62 %
07.12.2022 19:20 4,9 C 4,4 C 2,2 C 94 % 1014,0 hPa 0,0 l/m 0 min 0 min 0 W/m 6,4 km/h (2 Bft) 95,74 %
07.12.2022 19:22 4,9 C 4,4 C 2,2 C 94 % 1014,0 hPa 0,0 l/m 0 min 0 min 0 W/m 6,4 km/h (2 Bft) 93,48 %
07.12.2022 19:24 4,9 C 4,4 C 1,7 C 94 % 1013,9 hPa 0,0 l/m 0 min 0 min 0 W/m 3,2 km/h (1 Bft) 95,74 %
07.12.2022 19:26 4,9 C 4,4 C 2,2 C 94 % 1013,9 hPa 0,0 l/m 0 min 0 min 0 W/m 6,4 km/h (2 Bft) 93,62 %
07.12.2022 19:28 4,9 C 4,4 C 1,7 C 94 % 1013,9 hPa 0,0 l/m 0 min 0 min 0 W/m 9,7 km/h (2 Bft) 95,74 %
07.12.2022 19:30 4,9 C 4,4 C 1,7 C 94 % 1013,9 hPa 0,0 l/m 0 min 0 min 0 W/m 3,2 km/h (1 Bft) 95,74 %
07.12.2022 19:32 4,9 C 4,4 C 1,7 C 94 % 1013,9 hPa 0,0 l/m 0 min 0 min 0 W/m 3,2 km/h (1 Bft) 95,74 %
07.12.2022 19:34 4,9 C 4,4 C 1,7 C 94 % 1013,9 hPa 0,0 l/m 0 min 0 min 0 W/m 0,0 km/h (0 Bft) 97,83 %
07.12.2022 19:36 4,9 C 4,4 C 1,7 C 94 % 1013,9 hPa 0,0 l/m 0 min 0 min 0 W/m 0,0 km/h (0 Bft) 95,74 %
07.12.2022 19:38 4,8 C 4,4 C 1,7 C 94 % 1014,0 hPa 0,0 l/m 0 min 0 min 0 W/m 6,4 km/h (2 Bft) 95,74 %
07.12.2022 19:40 4,8 C 4,4 C 1,7 C 94 % 1013,9 hPa 0,0 l/m 0 min 0 min 0 W/m 3,2 km/h (1 Bft) 95,74 %
07.12.2022 19:42 4,8 C 4,4 C 1,7 C 94 % 1013,9 hPa 0,0 l/m 0 min 0 min 0 W/m 6,4 km/h (2 Bft) 97,87 %
07.12.2022 19:44 4,8 C 4,4 C 1,7 C 94 % 1013,9 hPa 0,0 l/m 0 min 0 min 0 W/m 3,2 km/h (1 Bft) 97,87 %
07.12.2022 19:46 4,8 C 3,9 C 1,7 C 94 % 1013,9 hPa 0,0 l/m 0 min 0 min 0 W/m 3,2 km/h (1 Bft) 95,65 %
07.12.2022 19:48 4,8 C 4,4 C 1,7 C 94 % 1013,8 hPa 0,0 l/m 0 min 0 min 0 W/m 3,2 km/h (1 Bft) 100,00 %
07.12.2022 19:50 4,8 C 3,9 C 1,7 C 94 % 1013,9 hPa 0,0 l/m 0 min 0 min 0 W/m 3,2 km/h (1 Bft) 97,87 %
07.12.2022 19:52 4,8 C 4,4 C 1,7 C 94 % 1013,8 hPa 0,0 l/m 0 min 0 min 0 W/m 3,2 km/h (1 Bft) 97,87 %
07.12.2022 19:55 4,8 C 3,9 C 1,7 C 94 % 1013,8 hPa 0,0 l/m 0 min 0 min 0 W/m 3,2 km/h (1 Bft) 100,00 %
07.12.2022 20:00 4,8 C 3,9 C 1,7 C 94 % 1013,7 hPa 0,0 l/m 0 min 0 min 0 W/m 3,2 km/h (1 Bft) 100,00 %
07.12.2022 20:05 4,7 C 3,9 C 1,7 C 94 % 1013,8 hPa 0,0 l/m 0 min 0 min 0 W/m 9,7 km/h (2 Bft) 100,00 %
07.12.2022 20:10 4,7 C 3,9 C 1,7 C 94 % 1013,7 hPa 0,0 l/m 0 min 0 min 0 W/m 6,4 km/h (2 Bft) 100,00 %
07.12.2022 20:15 4,6 C 3,9 C 1,7 C 94 % 1013,6 hPa 0,0 l/m 0 min 0 min 0 W/m 9,7 km/h (2 Bft) 100,00 %
07.12.2022 20:20 4,6 C 3,9 C 1,7 C 94 % 1013,7 hPa 0,0 l/m 0 min 0 min 0 W/m 6,4 km/h (2 Bft) 100,00 %
07.12.2022 20:25 4,6 C 3,9 C 1,7 C 94 % 1013,7 hPa 0,0 l/m 0 min 0 min 0 W/m 6,4 km/h (2 Bft) 100,00 %
07.12.2022 20:30 4,6 C 3,9 C 1,7 C 95 % 1013,6 hPa 0,0 l/m 0 min 0 min 0 W/m 6,4 km/h (2 Bft) 100,00 %
07.12.2022 20:35 4,6 C 3,9 C 1,7 C 95 % 1013,6 hPa 0,0 l/m 0 min 0 min 0 W/m 3,2 km/h (1 Bft) 99,12 %
07.12.2022 20:40 4,6 C 3,9 C 1,7 C 95 % 1013,6 hPa 0,0 l/m 0 min 0 min 0 W/m 6,4 km/h (2 Bft) 98,25 %
07.12.2022 20:45 4,6 C 3,9 C 1,7 C 95 % 1013,5 hPa 0,0 l/m 0 min 0 min 0 W/m 9,7 km/h (2 Bft) 99,12 %
07.12.2022 20:50 4,6 C 3,9 C 1,7 C 95 % 1013,5 hPa 0,0 l/m 0 min 0 min 0 W/m 6,4 km/h (2 Bft) 100,00 %
07.12.2022 20:55 4,5 C 3,9 C 1,7 C 95 % 1013,5 hPa 0,0 l/m 0 min 0 min 0 W/m 12,9 km/h (3 Bft) 99,12 %
07.12.2022 21:02 4,4 C 3,9 C 1,7 C 95 % 1013,5 hPa 0,0 l/m 0 min 0 min 0 W/m 3,2 km/h (1 Bft) 97,74 %
07.12.2022 21:04 4,4 C 3,9 C 1,7 C 95 % 1013,4 hPa 0,0 l/m 0 min 0 min 0 W/m 6,4 km/h (2 Bft) 93,62 %
07.12.2022 21:06 4,4 C 3,9 C 1,7 C 95 % 1013,4 hPa 0,0 l/m 0 min 0 min 0 W/m 3,2 km/h (1 Bft) 95,74 %
07.12.2022 21:08 4,4 C 3,9 C 1,7 C 95 % 1013,4 hPa 0,0 l/m 0 min 0 min 0 W/m 3,2 km/h (1 Bft) 93,48 %
07.12.2022 21:10 4,4 C 3,9 C 1,7 C 95 % 1013,4 hPa 0,0 l/m 0 min 0 min 0 W/m 6,4 km/h (2 Bft) 95,74 %
07.12.2022 21:12 4,4 C 3,9 C 1,7 C 95 % 1013,4 hPa 0,0 l/m 0 min 0 min 0 W/m 6,4 km/h (2 Bft) 95,74 %
07.12.2022 21:14 4,4 C 3,9 C 1,7 C 95 % 1013,4 hPa 0,0 l/m 0 min 0 min 0 W/m 3,2 km/h (1 Bft) 95,74 %
07.12.2022 21:16 4,3 C 3,9 C 1,7 C 95 % 1013,4 hPa 0,0 l/m 0 min 0 min 0 W/m 3,2 km/h (1 Bft) 93,62 %
07.12.2022 21:18 4,3 C 3,9 C 1,7 C 95 % 1013,4 hPa 0,0 l/m 0 min 0 min 0 W/m 3,2 km/h (1 Bft) 93,62 %
07.12.2022 21:20 4,3 C 3,9 C 1,7 C 95 % 1013,4 hPa 0,0 l/m 0 min 0 min 0 W/m 9,7 km/h (2 Bft) 95,74 %
07.12.2022 21:22 4,3 C 3,9 C 1,7 C 95 % 1013,4 hPa 0,0 l/m 0 min 0 min 0 W/m 3,2 km/h (1 Bft) 89,13 %
07.12.2022 21:24 4,3 C 3,9 C 1,7 C 95 % 1013,3 hPa 0,0 l/m 0 min 0 min 0 W/m 6,4 km/h (2 Bft) 93,62 %
07.12.2022 21:26 4,3 C 3,9 C 1,7 C 95 % 1013,3 hPa 0,0 l/m 0 min 0 min 0 W/m 12,9 km/h (3 Bft) 93,62 %
07.12.2022 21:28 4,3 C 3,9 C 1,7 C 95 % 1013,3 hPa 0,0 l/m 0 min 0 min 0 W/m 6,4 km/h (2 Bft) 93,62 %
07.12.2022 21:30 4,3 C 3,9 C 1,7 C 95 % 1013,3 hPa 0,0 l/m 0 min 0 min 0 W/m 3,2 km/h (1 Bft) 97,87 %
07.12.2022 21:32 4,3 C 3,9 C 1,7 C 95 % 1013,3 hPa 0,0 l/m 0 min 0 min 0 W/m 6,4 km/h (2 Bft) 97,87 %
07.12.2022 21:34 4,3 C 3,9 C 1,7 C 95 % 1013,3 hPa 0,0 l/m 0 min 0 min 0 W/m 6,4 km/h (2 Bft) 97,87 %
07.12.2022 21:36 4,3 C 3,9 C 1,7 C 95 % 1013,3 hPa 0,0 l/m 0 min 0 min 0 W/m 6,4 km/h (2 Bft) 97,87 %
07.12.2022 21:38 4,3 C 3,9 C 1,7 C 95 % 1013,2 hPa 0,0 l/m 0 min 0 min 0 W/m 6,4 km/h (2 Bft) 97,87 %
07.12.2022 21:40 4,3 C 3,9 C 1,7 C 95 % 1013,1 hPa 0,0 l/m 0 min 0 min 0 W/m 6,4 km/h (2 Bft) 97,83 %
07.12.2022 21:42 4,2 C 3,9 C 1,7 C 95 % 1013,1 hPa 0,0 l/m 0 min 0 min 0 W/m 12,9 km/h (3 Bft) 97,87 %
07.12.2022 21:44 4,2 C 3,9 C 1,7 C 95 % 1013,1 hPa 0,0 l/m 0 min 0 min 0 W/m 6,4 km/h (2 Bft) 95,74 %
07.12.2022 21:46 4,2 C 3,9 C 1,7 C 95 % 1013,1 hPa 0,0 l/m 0 min 0 min 0 W/m 3,2 km/h (1 Bft) 97,87 %
07.12.2022 21:48 4,2 C 3,3 C 1,1 C 95 % 1013,1 hPa 0,0 l/m 0 min 0 min 0 W/m 6,4 km/h (2 Bft) 95,74 %
07.12.2022 21:50 4,2 C 3,3 C 1,1 C 95 % 1013,1 hPa 0,0 l/m 0 min 0 min 0 W/m 3,2 km/h (1 Bft) 97,87 %
07.12.2022 21:52 4,2 C 3,3 C 1,1 C 95 % 1013,1 hPa 0,0 l/m 0 min 0 min 0 W/m 6,4 km/h (2 Bft) 95,74 %
07.12.2022 21:54 4,2 C 3,3 C 1,1 C 95 % 1013,1 hPa 0,0 l/m 0 min 0 min 0 W/m 3,2 km/h (1 Bft) 95,74 %
07.12.2022 21:56 4,2 C 3,3 C 1,1 C 95 % 1013,1 hPa 0,0 l/m 0 min 0 min 0 W/m 3,2 km/h (1 Bft) 95,65 %
07.12.2022 21:58 4,2 C 3,3 C 1,7 C 95 % 1013,0 hPa 0,0 l/m 0 min 0 min 0 W/m 3,2 km/h (1 Bft) 97,87 %
07.12.2022 22:00 4,1 C 3,3 C 1,1 C 95 % 1013,0 hPa 0,0 l/m 0 min 0 min 0 W/m 6,4 km/h (2 Bft) 100,00 %
07.12.2022 22:02 4,1 C 3,3 C 1,1 C 95 % 1013,0 hPa 0,0 l/m 0 min 0 min 0 W/m 6,4 km/h (2 Bft) 100,00 %
07.12.2022 22:04 4,1 C 3,3 C 1,1 C 95 % 1013,0 hPa 0,0 l/m 0 min 0 min 0 W/m 0,0 km/h (0 Bft) 100,00 %
07.12.2022 22:06 4,1 C 3,3 C 1,1 C 95 % 1013,0 hPa 0,0 l/m 0 min 0 min 0 W/m 0,0 km/h (0 Bft) 100,00 %
07.12.2022 22:08 4,1 C 3,3 C 1,1 C 95 % 1013,0 hPa 0,0 l/m 0 min 0 min 0 W/m 3,2 km/h (1 Bft) 100,00 %
07.12.2022 22:10 4,1 C 3,3 C 1,1 C 95 % 1013,0 hPa 0,0 l/m 0 min 0 min 0 W/m 3,2 km/h (1 Bft) 100,00 %
07.12.2022 22:12 4,1 C 3,3 C 1,1 C 95 % 1013,0 hPa 0,0 l/m 0 min 0 min 0 W/m 6,4 km/h (2 Bft) 100,00 %
07.12.2022 22:14 4,1 C 3,3 C 1,1 C 95 % 1013,0 hPa 0,0 l/m 0 min 0 min 0 W/m 6,4 km/h (2 Bft) 100,00 %
07.12.2022 22:16 4,1 C 3,3 C 1,1 C 95 % 1013,0 hPa 0,0 l/m 0 min 0 min 0 W/m 3,2 km/h (1 Bft) 100,00 %
07.12.2022 22:18 4,1 C 3,3 C 1,1 C 95 % 1013,0 hPa 0,0 l/m 0 min 0 min 0 W/m 0,0 km/h (0 Bft) 97,87 %
07.12.2022 22:20 4,0 C 3,3 C 1,1 C 95 % 1013,0 hPa 0,0 l/m 0 min 0 min 0 W/m 6,4 km/h (2 Bft) 100,00 %
07.12.2022 22:22 4,1 C 3,3 C 1,1 C 95 % 1012,9 hPa 0,0 l/m 0 min 0 min 0 W/m 3,2 km/h (1 Bft) 100,00 %
07.12.2022 22:24 4,1 C 3,3 C 1,1 C 95 % 1012,9 hPa 0,0 l/m 0 min 0 min 0 W/m 6,4 km/h (2 Bft) 100,00 %
07.12.2022 22:26 4,0 C 3,3 C 1,1 C 95 % 1013,0 hPa 0,0 l/m 0 min 0 min 0 W/m 3,2 km/h (1 Bft) 100,00 %
07.12.2022 22:28 4,0 C 3,3 C 1,1 C 95 % 1012,9 hPa 0,0 l/m 0 min 0 min 0 W/m 3,2 km/h (1 Bft) 91,49 %
07.12.2022 22:30 4,0 C 3,3 C 1,1 C 95 % 1013,0 hPa 0,0 l/m 0 min 0 min 0 W/m 0,0 km/h (0 Bft) 97,04 %
07.12.2022 22:32 4,0 C 3,3 C 1,1 C 95 % 1012,9 hPa 0,0 l/m 0 min 0 min 0 W/m 3,2 km/h (1 Bft) 100,00 %
07.12.2022 22:34 4,0 C 3,3 C 1,1 C 95 % 1012,9 hPa 0,0 l/m 0 min 0 min 0 W/m 3,2 km/h (1 Bft) 100,00 %
07.12.2022 22:36 3,9 C 3,3 C 1,1 C 95 % 1012,9 hPa 0,0 l/m 0 min 0 min 0 W/m 6,4 km/h (2 Bft) 100,00 %
07.12.2022 22:38 3,9 C 3,3 C 1,1 C 95 % 1012,9 hPa 0,0 l/m 0 min 0 min 0 W/m 3,2 km/h (1 Bft) 97,87 %
07.12.2022 22:40 3,9 C 3,3 C 1,1 C 95 % 1012,9 hPa 0,0 l/m 0 min 0 min 0 W/m 6,4 km/h (2 Bft) 100,00 %
07.12.2022 22:42 3,9 C 3,3 C 1,1 C 95 % 1012,8 hPa 0,0 l/m 0 min 0 min 0 W/m 6,4 km/h (2 Bft) 97,87 %
07.12.2022 22:44 3,9 C 3,3 C 1,1 C 95 % 1012,8 hPa 0,0 l/m 0 min 0 min 0 W/m 12,9 km/h (3 Bft) 100,00 %
07.12.2022 22:46 3,9 C 3,3 C 1,1 C 95 % 1012,8 hPa 0,0 l/m 0 min 0 min 0 W/m 6,4 km/h (2 Bft) 97,87 %
07.12.2022 22:48 3,9 C 3,3 C 1,1 C 95 % 1012,8 hPa 0,0 l/m 0 min 0 min 0 W/m 6,4 km/h (2 Bft) 97,87 %
07.12.2022 22:50 3,9 C 3,3 C 1,1 C 95 % 1012,8 hPa 0,0 l/m 0 min 0 min 0 W/m 6,4 km/h (2 Bft) 97,87 %
07.12.2022 22:52 3,9 C 3,3 C 1,1 C 95 % 1012,8 hPa 0,0 l/m 0 min 0 min 0 W/m 3,2 km/h (1 Bft) 97,87 %
07.12.2022 22:54 3,9 C 3,3 C 1,1 C 95 % 1012,8 hPa 0,0 l/m 0 min 0 min 0 W/m 6,4 km/h (2 Bft) 97,87 %
07.12.2022 22:56 3,9 C 3,3 C 1,1 C 95 % 1012,8 hPa 0,0 l/m 0 min 0 min 0 W/m 9,7 km/h (2 Bft) 95,65 %
07.12.2022 22:58 3,9 C 3,3 C 1,1 C 95 % 1012,8 hPa 0,0 l/m 0 min 0 min 0 W/m 12,9 km/h (3 Bft) 95,74 %
07.12.2022 23:00 3,9 C 3,3 C 1,1 C 95 % 1012,8 hPa 0,0 l/m 0 min 0 min 0 W/m 6,4 km/h (2 Bft) 97,87 %
07.12.2022 23:02 3,9 C 3,3 C 1,1 C 95 % 1012,8 hPa 0,0 l/m 0 min 0 min 0 W/m 6,4 km/h (2 Bft) 93,62 %
07.12.2022 23:04 3,9 C 3,3 C 1,1 C 95 % 1012,8 hPa 0,0 l/m 0 min 0 min 0 W/m 9,7 km/h (2 Bft) 93,62 %
07.12.2022 23:06 3,9 C 3,3 C 1,1 C 95 % 1012,8 hPa 0,0 l/m 0 min 0 min 0 W/m 6,4 km/h (2 Bft) 97,87 %
07.12.2022 23:08 3,9 C 3,3 C 1,1 C 95 % 1012,8 hPa 0,0 l/m 0 min 0 min 0 W/m 9,7 km/h (2 Bft) 95,74 %
07.12.2022 23:10 3,8 C 3,3 C 1,1 C 95 % 1012,8 hPa 0,0 l/m 0 min 0 min 0 W/m 12,9 km/h (3 Bft) 97,83 %
07.12.2022 23:12 3,8 C 3,3 C 1,1 C 96 % 1012,8 hPa 0,0 l/m 0 min 0 min 0 W/m 6,4 km/h (2 Bft) 95,74 %
07.12.2022 23:14 3,8 C 3,3 C 1,1 C 95 % 1012,7 hPa 0,0 l/m 0 min 0 min 0 W/m 6,4 km/h (2 Bft) 97,87 %
07.12.2022 23:16 3,8 C 3,3 C 1,1 C 95 % 1012,7 hPa 0,0 l/m 0 min 0 min 0 W/m 6,4 km/h (2 Bft) 100,00 %
07.12.2022 23:18 3,8 C 3,3 C 1,1 C 95 % 1012,7 hPa 0,0 l/m 0 min 0 min 0 W/m 3,2 km/h (1 Bft) 100,00 %
07.12.2022 23:20 3,8 C 3,3 C 1,1 C 95 % 1012,8 hPa 0,0 l/m 0 min 0 min 0 W/m 12,9 km/h (3 Bft) 100,00 %
07.12.2022 23:22 3,8 C 3,3 C 1,1 C 95 % 1012,7 hPa 0,0 l/m 0 min 0 min 0 W/m 3,2 km/h (1 Bft) 100,00 %
07.12.2022 23:24 3,8 C 3,3 C 1,1 C 95 % 1012,8 hPa 0,0 l/m 0 min 0 min 0 W/m 6,4 km/h (2 Bft) 100,00 %
07.12.2022 23:26 3,8 C 3,3 C 1,1 C 95 % 1012,8 hPa 0,0 l/m 0 min 0 min 0 W/m 3,2 km/h (1 Bft) 100,00 %
07.12.2022 23:28 3,8 C 3,3 C 1,1 C 95 % 1012,7 hPa 0,0 l/m 0 min 0 min 0 W/m 3,2 km/h (1 Bft) 100,00 %
07.12.2022 23:30 3,8 C 3,3 C 1,1 C 95 % 1012,7 hPa 0,0 l/m 0 min 0 min 0 W/m 6,4 km/h (2 Bft) 100,00 %
07.12.2022 23:32 3,8 C 3,3 C 1,1 C 95 % 1012,7 hPa 0,0 l/m 0 min 0 min 0 W/m 3,2 km/h (1 Bft) 100,00 %
07.12.2022 23:34 3,8 C 3,3 C 1,1 C 95 % 1012,6 hPa 0,0 l/m 0 min 0 min 0 W/m 6,4 km/h (2 Bft) 95,74 %
07.12.2022 23:36 3,8 C 3,3 C 1,1 C 95 % 1012,6 hPa 0,0 l/m 0 min 0 min 0 W/m 3,2 km/h (1 Bft) 100,00 %
07.12.2022 23:38 3,8 C 3,3 C 1,1 C 95 % 1012,5 hPa 0,0 l/m 0 min 0 min 0 W/m 3,2 km/h (1 Bft) 100,00 %
07.12.2022 23:40 3,8 C 3,3 C 1,1 C 95 % 1012,5 hPa 0,0 l/m 0 min 0 min 0 W/m 3,2 km/h (1 Bft) 100,00 %
07.12.2022 23:42 3,8 C 3,3 C 1,1 C 95 % 1012,5 hPa 0,0 l/m 0 min 0 min 0 W/m 3,2 km/h (1 Bft) 100,00 %
07.12.2022 23:44 3,8 C 3,3 C 1,1 C 95 % 1012,5 hPa 0,0 l/m 0 min 0 min 0 W/m 6,4 km/h (2 Bft) 97,87 %
07.12.2022 23:46 3,8 C 3,3 C 1,1 C 95 % 1012,5 hPa 0,0 l/m 0 min 0 min 0 W/m 6,4 km/h (2 Bft) 97,87 %
07.12.2022 23:48 3,8 C 3,3 C 1,1 C 95 % 1012,5 hPa 0,0 l/m 0 min 0 min 0 W/m 6,4 km/h (2 Bft) 93,62 %
07.12.2022 23:50 3,8 C 3,3 C 1,1 C 95 % 1012,5 hPa 0,0 l/m 0 min 0 min 0 W/m 3,2 km/h (1 Bft) 95,74 %
07.12.2022 23:52 3,8 C 3,3 C 1,1 C 96 % 1012,5 hPa 0,0 l/m 0 min 0 min 0 W/m 6,4 km/h (2 Bft) 95,65 %
07.12.2022 23:54 3,7 C 3,3 C 1,1 C 96 % 1012,4 hPa 0,0 l/m 0 min 0 min 0 W/m 3,2 km/h (1 Bft) 95,74 %
07.12.2022 23:56 3,7 C 3,3 C 1,1 C 96 % 1012,4 hPa 0,0 l/m 0 min 0 min 0 W/m 6,4 km/h (2 Bft) 93,62 %
07.12.2022 23:58 3,7 C 3,3 C 1,1 C 96 % 1012,4 hPa 0,0 l/m 0 min 0 min 0 W/m 6,4 km/h (2 Bft) 95,74 %
_ Min-Zeit 08:56 05:08 04:16 14:22 23:54 - - - - 00:18 01:48
Minimum _ 3,1 C 2,2 C 1,1 C 89 % 1012,4 hPa - - - - 0,0 km/h (0 Bft) 67,39 %
_ Max-Zeit 12:58 12:54 12:32 02:32 00:00 00:08 10:20 00:08 10:38 00:50 00:52
Maximum _ 6,1 C 7,8 C 3,9 C 98 % 1018,2 hPa 0,2 l/m 2 min 4 min 204 W/m 16,1 km/h
O-SO (3 Bft)
100,00 %
Durchschnitt _ 4,4 C 4,0 C 2,0 C 95 % 1016,0 hPa #0,2 l/m #58 min. #10 min. 66 W/m 6,0 km/h (2 Bft) 96,89 %
© 2022 W. Hausmann